Observation data for Sierra Blanca on 03/22/2019      Previous  Date  Next       Current Mesonet Observations  Soil Data  Daily Summary Page  Observations in Plain Language
KSB1 220500Z 11006KT 13/08 A301 RMK A01 T01320083  RH  073%=      5-min Rain = 0
KSB1 220501Z 11008KT 13/08 A301 RMK A01 T01320084  RH  073%=      5-min Rain = 0
KSB1 220502Z 11007KT 13/08 A3009 RMK A01 T01320084  RH  073%=      5-min Rain = 0
KSB1 220503Z 11007KT 13/08 A3009 RMK A01 T01320084  RH  073%=      5-min Rain = 0
KSB1 220504Z 12008KT 13/08 A3009 RMK A01 T01320084  RH  073%=      5-min Rain = 0
KSB1 220505Z 11007KT 13/08 A3009 RMK A01 T01320084  RH  073%=      5-min Rain = 0
KSB1 220506Z 11007KT 13/08 A3009 RMK A01 T01320084  RH  073%=      5-min Rain = 0
KSB1 220507Z 11008KT 13/08 A3009 RMK A01 T01320084  RH  073%=      5-min Rain = 0
KSB1 220508Z 11009KT 13/09 A3009 RMK A01 T01320085  RH  073%=      5-min Rain = 0
KSB1 220509Z 11007KT 13/08 A3009 RMK A01 T01320084  RH  073%=      5-min Rain = 0
KSB1 220510Z 11008KT 13/08 A3009 RMK A01 T01310084  RH  073%=      5-min Rain = 0
KSB1 220511Z 11006KT 13/08 A3009 RMK A01 T01310084  RH  073%=      5-min Rain = 0
KSB1 220512Z 11007KT 13/08 A3009 RMK A01 T01310084  RH  073%=      5-min Rain = 0
KSB1 220513Z 12008KT 13/08 A3009 RMK A01 T01310084  RH  073%=      5-min Rain = 0
KSB1 220514Z 13005KT 13/08 A3009 RMK A01 T01300084  RH  073%=      5-min Rain = 0
KSB1 220515Z 12007KT 13/08 A3009 RMK A01 T01310084  RH  074%=      5-min Rain = 0
KSB1 220516Z 12005KT 13/08 A3009 RMK A01 T01300084  RH  073%=      5-min Rain = 0
KSB1 220517Z 13005KT 13/08 A3009 RMK A01 T01300084  RH  073%=      5-min Rain = 0
KSB1 220518Z 13007KT 13/08 A3009 RMK A01 T01300084  RH  074%=      5-min Rain = 0
KSB1 220519Z 14007KT 13/08 A3009 RMK A01 T01300084  RH  074%=      5-min Rain = 0
KSB1 220520Z 13006KT 13/09 A3009 RMK A01 T01300085  RH  074%=      5-min Rain = 0
KSB1 220521Z 12005KT 13/09 A3009 RMK A01 T01300085  RH  074%=      5-min Rain = 0
KSB1 220522Z 13007KT 13/09 A3009 RMK A01 T01300085  RH  074%=      5-min Rain = 0
KSB1 220523Z 13007KT 13/09 A3009 RMK A01 T01300085  RH  074%=      5-min Rain = 0
KSB1 220524Z 13008KT 13/08 A3009 RMK A01 T01300084  RH  074%=      5-min Rain = 0
KSB1 220525Z 12006KT 13/08 A3009 RMK A01 T01300084  RH  074%=      5-min Rain = 0
KSB1 220526Z 12005KT 13/08 A3009 RMK A01 T01300084  RH  074%=      5-min Rain = 0
KSB1 220527Z 12007KT 13/08 A3009 RMK A01 T01300084  RH  074%=      5-min Rain = 0
KSB1 220528Z 12008KT 13/08 A3009 RMK A01 T01300084  RH  074%=      5-min Rain = 0
KSB1 220529Z 11007KT 13/08 A3009 RMK A01 T01300084  RH  073%=      5-min Rain = 0
KSB1 220530Z 12007KT 13/08 A3009 RMK A01 T01310084  RH  073%=      5-min Rain = 0
KSB1 220531Z 12006KT 13/08 A3009 RMK A01 T01310084  RH  073%=      5-min Rain = 0
KSB1 220532Z 12007KT 13/08 A3009 RMK A01 T01310084  RH  073%=      5-min Rain = 0
KSB1 220533Z 12005KT 13/08 A3009 RMK A01 T01310084  RH  073%=      5-min Rain = 0
KSB1 220534Z 11004KT 13/08 A3009 RMK A01 T01310084  RH  073%=      5-min Rain = 0
KSB1 220535Z 12004KT 13/08 A3009 RMK A01 T01310084  RH  073%=      5-min Rain = 0
KSB1 220536Z 12003KT 13/08 A3009 RMK A01 T01300084  RH  073%=      5-min Rain = 0
KSB1 220537Z 12003KT 13/08 A3009 RMK A01 T01300084  RH  074%=      5-min Rain = 0
KSB1 220538Z 14004KT 13/08 A3009 RMK A01 T01300084  RH  074%=      5-min Rain = 0
KSB1 220539Z 13005KT 13/08 A3009 RMK A01 T01290084  RH  074%=      5-min Rain = 0
KSB1 220540Z 13004KT 13/08 A3009 RMK A01 T01280084  RH  074%=      5-min Rain = 0
KSB1 220541Z 13003KT 13/08 A3009 RMK A01 T01280084  RH  074%=      5-min Rain = 0
KSB1 220542Z 11004KT 13/08 A3009 RMK A01 T01290084  RH  074%=      5-min Rain = 0
KSB1 220543Z 11003KT 13/08 A3009 RMK A01 T01280084  RH  074%=      5-min Rain = 0
KSB1 220544Z 11004KT 13/09 A3009 RMK A01 T01280085  RH  075%=      5-min Rain = 0
KSB1 220545Z 11005KT 13/08 A3009 RMK A01 T01280084  RH  075%=      5-min Rain = 0
KSB1 220546Z 10005KT 13/08 A3009 RMK A01 T01280084  RH  075%=      5-min Rain = 0
KSB1 220547Z 11006KT 13/08 A3009 RMK A01 T01280084  RH  075%=      5-min Rain = 0
KSB1 220548Z 10005KT 13/08 A3009 RMK A01 T01280084  RH  075%=      5-min Rain = 0
KSB1 220549Z 11006KT 13/08 A3009 RMK A01 T01280084  RH  075%=      5-min Rain = 0
KSB1 220550Z 12006KT 13/09 A3009 RMK A01 T01280085  RH  075%=      5-min Rain = 0
KSB1 220551Z 12005KT 13/08 A3009 RMK A01 T01280084  RH  075%=      5-min Rain = 0
KSB1 220552Z 11006KT 13/09 A3009 RMK A01 T01280085  RH  075%=      5-min Rain = 0
KSB1 220553Z 11005KT 13/08 A3009 RMK A01 T01270084  RH  075%=      5-min Rain = 0
KSB1 220554Z 12005KT 13/08 A3009 RMK A01 T01270084  RH  075%=      5-min Rain = 0
KSB1 220555Z 12004KT 13/08 A3009 RMK A01 T01270084  RH  075%=      5-min Rain = 0
KSB1 220556Z 11006KT 13/08 A3009 RMK A01 T01270084  RH  075%=      5-min Rain = 0
KSB1 220557Z 11005KT 13/08 A3008 RMK A01 T01270084  RH  075%=      5-min Rain = 0
KSB1 220558Z 12005KT 13/08 A3008 RMK A01 T01270084  RH  075%=      5-min Rain = 0
KSB1 220559Z 13005KT 13/08 A3008 RMK A01 T01270084  RH  075%=      5-min Rain = 0
KSB1 220600Z 12005KT 13/08 A3008 RMK A01 T01270084  RH  075%=      5-min Rain = 0
KSB1 220601Z 13005KT 13/08 A3009 RMK A01 T01260084  RH  075%=      5-min Rain = 0
KSB1 220602Z 14006KT 13/09 A3009 RMK A01 T01260085  RH  076%=      5-min Rain = 0
KSB1 220603Z 13006KT 13/08 A3009 RMK A01 T01250084  RH  076%=      5-min Rain = 0
KSB1 220604Z 13005KT 13/09 A3008 RMK A01 T01250085  RH  076%=      5-min Rain = 0
KSB1 220605Z 13005KT 13/09 A3008 RMK A01 T01250085  RH  076%=      5-min Rain = 0
KSB1 220606Z 13007KT 12/08 A3008 RMK A01 T01240084  RH  077%=      5-min Rain = 0
KSB1 220607Z 14006KT 13/09 A3009 RMK A01 T01250085  RH  077%=      5-min Rain = 0
KSB1 220608Z 14005KT 13/09 A3009 RMK A01 T01250085  RH  077%=      5-min Rain = 0
KSB1 220609Z 13006KT 13/09 A3009 RMK A01 T01250085  RH  077%=      5-min Rain = 0
KSB1 220610Z 14005KT 12/09 A3009 RMK A01 T01240085  RH  077%=      5-min Rain = 0
KSB1 220611Z 14005KT 12/09 A3009 RMK A01 T01240085  RH  077%=      5-min Rain = 0
KSB1 220612Z 14005KT 12/09 A3009 RMK A01 T01240085  RH  077%=      5-min Rain = 0
KSB1 220613Z 13005KT 12/09 A3009 RMK A01 T01240086  RH  077%=      5-min Rain = 0
KSB1 220614Z 16004KT 12/09 A3009 RMK A01 T01240085  RH  077%=      5-min Rain = 0
KSB1 220615Z 15004KT 12/09 A3009 RMK A01 T01240086  RH  077%=      5-min Rain = 0
KSB1 220616Z 15004KT 12/09 A3009 RMK A01 T01240085  RH  077%=      5-min Rain = 0
KSB1 220617Z 13004KT 12/09 A3009 RMK A01 T01240085  RH  077%=      5-min Rain = 0
KSB1 220618Z 13004KT 12/09 A3009 RMK A01 T01240085  RH  077%=      5-min Rain = 0
KSB1 220619Z 13004KT 12/09 A3009 RMK A01 T01240085  RH  077%=      5-min Rain = 0
KSB1 220620Z 13002KT 12/09 A3009 RMK A01 T01240085  RH  077%=      5-min Rain = 0
KSB1 220621Z 11003KT 12/09 A3008 RMK A01 T01240085  RH  077%=      5-min Rain = 0
KSB1 220622Z 12003KT 12/09 A3008 RMK A01 T01240086  RH  077%=      5-min Rain = 0
KSB1 220623Z 10003KT 12/09 A3008 RMK A01 T01240086  RH  077%=      5-min Rain = 0
KSB1 220624Z 10003KT 12/09 A3008 RMK A01 T01240086  RH  077%=      5-min Rain = 0
KSB1 220625Z 09003KT 12/09 A3008 RMK A01 T01240086  RH  077%=      5-min Rain = 0
KSB1 220626Z 09002KT 12/09 A3008 RMK A01 T01240086  RH  078%=      5-min Rain = 0
KSB1 220627Z 09002KT 12/09 A3008 RMK A01 T01230085  RH  078%=      5-min Rain = 0
KSB1 220628Z 06001KT 12/09 A3008 RMK A01 T01230086  RH  078%=      5-min Rain = 0
KSB1 220629Z 06001KT 12/09 A3008 RMK A01 T01220086  RH  078%=      5-min Rain = 0
KSB1 220630Z 05001KT 12/09 A3009 RMK A01 T01220085  RH  078%=      5-min Rain = 0
KSB1 220631Z 02002KT 12/09 A3009 RMK A01 T01220086  RH  078%=      5-min Rain = 0
KSB1 220632Z 05002KT 12/09 A3009 RMK A01 T01210085  RH  079%=      5-min Rain = 0
KSB1 220633Z 05002KT 12/09 A3009 RMK A01 T01220086  RH  079%=      5-min Rain = 0
KSB1 220634Z 03002KT 12/09 A3009 RMK A01 T01220086  RH  079%=      5-min Rain = 0
KSB1 220635Z 01003KT 12/09 A3009 RMK A01 T01210085  RH  079%=      5-min Rain = 0
KSB1 220636Z 00003KT 12/09 A3009 RMK A01 T01210086  RH  079%=      5-min Rain = 0
KSB1 220637Z 35003KT 12/09 A3009 RMK A01 T01200085  RH  079%=      5-min Rain = 0
KSB1 220638Z 35003KT 12/09 A3009 RMK A01 T01190086  RH  080%=      5-min Rain = 0
KSB1 220639Z 34002KT 12/09 A3009 RMK A01 T01190086  RH  080%=      5-min Rain = 0
KSB1 220640Z 36003KT 12/09 A3009 RMK A01 T01180085  RH  080%=      5-min Rain = 0
KSB1 220641Z 35003KT 12/09 A3009 RMK A01 T01190085  RH  080%=      5-min Rain = 0
KSB1 220642Z 34004KT 12/09 A3009 RMK A01 T01190085  RH  079%=      5-min Rain = 0
KSB1 220643Z 34002KT 12/09 A3009 RMK A01 T01200085  RH  079%=      5-min Rain = 0
KSB1 220644Z 31002KT 12/09 A3009 RMK A01 T01210085  RH  079%=      5-min Rain = 0
KSB1 220645Z 31003KT 12/09 A3009 RMK A01 T01220086  RH  079%=      5-min Rain = 0
KSB1 220646Z 31003KT 12/09 A3009 RMK A01 T01210085  RH  079%=      5-min Rain = 0
KSB1 220647Z 30003KT 12/09 A3009 RMK A01 T01210085  RH  079%=      5-min Rain = 0
KSB1 220648Z 28001KT 12/09 A3009 RMK A01 T01220085  RH  078%=      5-min Rain = 0
KSB1 220649Z 24001KT 12/09 A3009 RMK A01 T01230086  RH  078%=      5-min Rain = 0
KSB1 220650Z 27001KT 12/09 A3009 RMK A01 T01230086  RH  078%=      5-min Rain = 0
KSB1 220651Z 22000KT 12/09 A3009 RMK A01 T01230085  RH  078%=      5-min Rain = 0
KSB1 220652Z 08001KT 12/09 A3009 RMK A01 T01230085  RH  078%=      5-min Rain = 0
KSB1 220653Z 08001KT 12/09 A3009 RMK A01 T01230085  RH  078%=      5-min Rain = 0
KSB1 220654Z 10002KT 12/09 A3009 RMK A01 T01230085  RH  077%=      5-min Rain = 0
KSB1 220655Z 09003KT 12/09 A3009 RMK A01 T01230085  RH  077%=      5-min Rain = 0
KSB1 220656Z 12005KT 12/09 A3009 RMK A01 T01230085  RH  078%=      5-min Rain = 0
KSB1 220657Z 12004KT 12/09 A3009 RMK A01 T01240086  RH  078%=      5-min Rain = 0
KSB1 220658Z 11002KT 12/09 A3009 RMK A01 T01230085  RH  077%=      5-min Rain = 0
KSB1 220659Z 12003KT 12/09 A3009 RMK A01 T01240085  RH  077%=      5-min Rain = 0
KSB1 220700Z 12003KT 12/09 A3009 RMK A01 T01240086  RH  078%=      5-min Rain = 0
KSB1 220701Z 13003KT 12/09 A3009 RMK A01 T01230085  RH  078%=      5-min Rain = 0
KSB1 220702Z 14003KT 12/09 A3009 RMK A01 T01230085  RH  078%=      5-min Rain = 0
KSB1 220703Z 13002KT 12/09 A3009 RMK A01 T01220085  RH  078%=      5-min Rain = 0
KSB1 220704Z 13002KT 12/09 A3009 RMK A01 T01220085  RH  078%=      5-min Rain = 0
KSB1 220705Z 14003KT 12/09 A3009 RMK A01 T01220085  RH  078%=      5-min Rain = 0
KSB1 220706Z 14002KT 12/09 A3009 RMK A01 T01220085  RH  078%=      5-min Rain = 0
KSB1 220707Z 15002KT 12/09 A3009 RMK A01 T01220085  RH  078%=      5-min Rain = 0
KSB1 220708Z 15002KT 12/09 A3008 RMK A01 T01210085  RH  078%=      5-min Rain = 0
KSB1 220709Z 13003KT 12/09 A3008 RMK A01 T01220085  RH  078%=      5-min Rain = 0
KSB1 220710Z 13002KT 12/09 A3008 RMK A01 T01220085  RH  078%=      5-min Rain = 0
KSB1 220711Z 14002KT 12/09 A3008 RMK A01 T01220085  RH  078%=      5-min Rain = 0
KSB1 220712Z 13003KT 12/09 A3008 RMK A01 T01210085  RH  078%=      5-min Rain = 0
KSB1 220713Z 12002KT 12/09 A3008 RMK A01 T01210085  RH  078%=      5-min Rain = 0
KSB1 220714Z 11002KT 12/09 A3008 RMK A01 T01200085  RH  079%=      5-min Rain = 0
KSB1 220715Z 12002KT 12/09 A3008 RMK A01 T01210085  RH  079%=      5-min Rain = 0
KSB1 220716Z 10002KT 12/09 A3008 RMK A01 T01200085  RH  079%=      5-min Rain = 0
KSB1 220717Z 10002KT 12/09 A3008 RMK A01 T01200085  RH  079%=      5-min Rain = 0
KSB1 220718Z 09002KT 12/09 A3008 RMK A01 T01200085  RH  079%=      5-min Rain = 0
KSB1 220719Z 10002KT 12/09 A3008 RMK A01 T01200085  RH  079%=      5-min Rain = 0
KSB1 220720Z 10002KT 12/09 A3008 RMK A01 T01200085  RH  079%=      5-min Rain = 0
KSB1 220721Z 10001KT 12/09 A3008 RMK A01 T01200085  RH  079%=      5-min Rain = 0
KSB1 220722Z 10002KT 12/09 A3008 RMK A01 T01200085  RH  079%=      5-min Rain = 0
KSB1 220723Z 04001KT 12/09 A3008 RMK A01 T01200085  RH  079%=      5-min Rain = 0
KSB1 220724Z 12000KT 12/09 A3008 RMK A01 T01200085  RH  079%=      5-min Rain = 0
KSB1 220725Z 03000KT 12/09 A3008 RMK A01 T01200085  RH  079%=      5-min Rain = 0
KSB1 220726Z 00001KT 12/09 A3008 RMK A01 T01190085  RH  079%=      5-min Rain = 0
KSB1 220727Z 09002KT 12/09 A3008 RMK A01 T01190085  RH  079%=      5-min Rain = 0
KSB1 220728Z 11003KT 12/09 A3008 RMK A01 T01190085  RH  079%=      5-min Rain = 0
KSB1 220729Z 09002KT 12/09 A3008 RMK A01 T01200085  RH  079%=      5-min Rain = 0
KSB1 220730Z 08002KT 12/09 A3008 RMK A01 T01200085  RH  079%=      5-min Rain = 0
KSB1 220731Z 08002KT 12/09 A3008 RMK A01 T01200085  RH  079%=      5-min Rain = 0
KSB1 220732Z 10002KT 12/09 A3008 RMK A01 T01190085  RH  079%=      5-min Rain = 0
KSB1 220733Z 10002KT 12/09 A3008 RMK A01 T01190085  RH  079%=      5-min Rain = 0
KSB1 220734Z 11003KT 12/09 A3007 RMK A01 T01190085  RH  080%=      5-min Rain = 0
KSB1 220735Z 10002KT 12/09 A3007 RMK A01 T01190085  RH  080%=      5-min Rain = 0
KSB1 220736Z 10001KT 12/08 A3007 RMK A01 T01180084  RH  080%=      5-min Rain = 0
KSB1 220737Z 10003KT 12/09 A3007 RMK A01 T01180085  RH  080%=      5-min Rain = 0
KSB1 220738Z 11002KT 12/09 A3007 RMK A01 T01180085  RH  080%=      5-min Rain = 0
KSB1 220739Z 10002KT 12/08 A3007 RMK A01 T01170084  RH  080%=      5-min Rain = 0
KSB1 220740Z 10003KT 12/09 A3007 RMK A01 T01170085  RH  080%=      5-min Rain = 0
KSB1 220741Z 10003KT 12/09 A3007 RMK A01 T01170085  RH  081%=      5-min Rain = 0
KSB1 220742Z 11003KT 12/09 A3007 RMK A01 T01170085  RH  081%=      5-min Rain = 0
KSB1 220743Z 12003KT 12/09 A3007 RMK A01 T01170085  RH  081%=      5-min Rain = 0
KSB1 220744Z 12003KT 12/09 A3007 RMK A01 T01170085  RH  081%=      5-min Rain = 0
KSB1 220745Z 12003KT 12/08 A3007 RMK A01 T01170084  RH  081%=      5-min Rain = 0
KSB1 220746Z 13003KT 12/08 A3008 RMK A01 T01160084  RH  081%=      5-min Rain = 0
KSB1 220747Z 13004KT 12/08 A3008 RMK A01 T01160084  RH  081%=      5-min Rain = 0
KSB1 220748Z 13003KT 12/08 A3008 RMK A01 T01150084  RH  081%=      5-min Rain = 0
KSB1 220749Z 13003KT 12/09 A3007 RMK A01 T01150085  RH  081%=      5-min Rain = 0
KSB1 220750Z 13003KT 12/08 A3007 RMK A01 T01150084  RH  082%=      5-min Rain = 0
KSB1 220751Z 13003KT 12/08 A3007 RMK A01 T01150084  RH  082%=      5-min Rain = 0
KSB1 220752Z 13003KT 12/09 A3007 RMK A01 T01150085  RH  082%=      5-min Rain = 0
KSB1 220753Z 13003KT 11/09 A3007 RMK A01 T01140085  RH  082%=      5-min Rain = 0
KSB1 220754Z 13003KT 11/08 A3007 RMK A01 T01140084  RH  082%=      5-min Rain = 0
KSB1 220755Z 13003KT 11/08 A3007 RMK A01 T01140084  RH  082%=      5-min Rain = 0
KSB1 220756Z 13002KT 11/08 A3007 RMK A01 T01140084  RH  082%=      5-min Rain = 0
KSB1 220757Z 14002KT 11/08 A3007 RMK A01 T01130084  RH  082%=      5-min Rain = 0
KSB1 220758Z 15002KT 11/08 A3007 RMK A01 T01130084  RH  082%=      5-min Rain = 0
KSB1 220759Z 16002KT 11/08 A3007 RMK A01 T01130084  RH  083%=      5-min Rain = 0
KSB1 220800Z 16002KT 11/08 A3008 RMK A01 T01130084  RH  083%=      5-min Rain = 0
KSB1 220801Z 18002KT 11/08 A3008 RMK A01 T01120084  RH  083%=      5-min Rain = 0
KSB1 220802Z 18001KT 11/08 A3007 RMK A01 T01120084  RH  083%=      5-min Rain = 0
KSB1 220803Z 19002KT 11/08 A3007 RMK A01 T01120084  RH  083%=      5-min Rain = 0
KSB1 220804Z 16002KT 11/08 A3007 RMK A01 T01110084  RH  083%=      5-min Rain = 0
KSB1 220805Z 15003KT 11/08 A3007 RMK A01 T01120084  RH  083%=      5-min Rain = 0
KSB1 220806Z 15003KT 11/08 A3007 RMK A01 T01120084  RH  083%=      5-min Rain = 0
KSB1 220807Z 15003KT 11/08 A3007 RMK A01 T01120084  RH  083%=      5-min Rain = 0
KSB1 220808Z 16002KT 11/08 A3007 RMK A01 T01130084  RH  083%=      5-min Rain = 0
KSB1 220809Z 15002KT 11/08 A3007 RMK A01 T01130084  RH  082%=      5-min Rain = 0
KSB1 220810Z 16003KT 11/08 A3007 RMK A01 T01130084  RH  082%=      5-min Rain = 0
KSB1 220811Z 15004KT 11/08 A3007 RMK A01 T01130084  RH  082%=      5-min Rain = 0
KSB1 220812Z 16004KT 11/08 A3007 RMK A01 T01120084  RH  083%=      5-min Rain = 0
KSB1 220813Z 17003KT 11/08 A3007 RMK A01 T01120084  RH  083%=      5-min Rain = 0
KSB1 220814Z 16004KT 11/08 A3007 RMK A01 T01120083  RH  083%=      5-min Rain = 0
KSB1 220815Z 16004KT 11/08 A3007 RMK A01 T01110083  RH  083%=      5-min Rain = 0
KSB1 220816Z 17004KT 11/08 A3007 RMK A01 T01110083  RH  083%=      5-min Rain = 0
KSB1 220817Z 17004KT 11/08 A3007 RMK A01 T01110083  RH  083%=      5-min Rain = 0
KSB1 220818Z 17004KT 11/08 A3007 RMK A01 T01090082  RH  084%=      5-min Rain = 0
KSB1 220819Z 17005KT 11/08 A3007 RMK A01 T01080082  RH  084%=      5-min Rain = 0
KSB1 220820Z 16005KT 11/08 A3007 RMK A01 T01070082  RH  084%=      5-min Rain = 0
KSB1 220821Z 16006KT 11/08 A3006 RMK A01 T01060082  RH  085%=      5-min Rain = 0
KSB1 220822Z 15007KT 11/08 A3006 RMK A01 T01060082  RH  085%=      5-min Rain = 0
KSB1 220823Z 15007KT 11/08 A3006 RMK A01 T01050082  RH  086%=      5-min Rain = 0
KSB1 220824Z 14008KT 11/08 A3006 RMK A01 T01050083  RH  086%=      5-min Rain = 0
KSB1 220825Z 14008KT 11/08 A3006 RMK A01 T01050083  RH  086%=      5-min Rain = 0
KSB1 220826Z 14009KT 11/08 A3006 RMK A01 T01050084  RH  087%=      5-min Rain = 0
KSB1 220827Z 14009KT 11/09 A3006 RMK A01 T01060085  RH  087%=      5-min Rain = 0
KSB1 220828Z 14008KT 11/09 A3006 RMK A01 T01080086  RH  086%=      5-min Rain = 0
KSB1 220829Z 14008KT 11/09 A3006 RMK A01 T01100086  RH  085%=      5-min Rain = 0
KSB1 220830Z 14007KT 11/09 A3006 RMK A01 T01110086  RH  085%=      5-min Rain = 0
KSB1 220831Z 15006KT 11/09 A3006 RMK A01 T01120086  RH  084%=      5-min Rain = 0
KSB1 220832Z 15006KT 11/09 A3006 RMK A01 T01120085  RH  084%=      5-min Rain = 0
KSB1 220833Z 15007KT 11/09 A3006 RMK A01 T01120085  RH  083%=      5-min Rain = 0
KSB1 220834Z 15007KT 11/09 A3006 RMK A01 T01120085  RH  084%=      5-min Rain = 0
KSB1 220835Z 16006KT 11/09 A3006 RMK A01 T01110085  RH  084%=      5-min Rain = 0
KSB1 220836Z 16006KT 11/08 A3006 RMK A01 T01110084  RH  084%=      5-min Rain = 0
KSB1 220837Z 16006KT 11/09 A3006 RMK A01 T01110085  RH  084%=      5-min Rain = 0
KSB1 220838Z 16006KT 11/09 A3006 RMK A01 T01110085  RH  084%=      5-min Rain = 0
KSB1 220839Z 16006KT 11/08 A3006 RMK A01 T01110084  RH  084%=      5-min Rain = 0
KSB1 220840Z 16006KT 11/08 A3006 RMK A01 T01120084  RH  083%=      5-min Rain = 0
KSB1 220841Z 16006KT 11/08 A3006 RMK A01 T01120084  RH  083%=      5-min Rain = 0
KSB1 220842Z 17006KT 11/08 A3006 RMK A01 T01110084  RH  083%=      5-min Rain = 0
KSB1 220843Z 16007KT 11/08 A3006 RMK A01 T01110084  RH  083%=      5-min Rain = 0
KSB1 220844Z 16006KT 11/08 A3006 RMK A01 T01110084  RH  084%=      5-min Rain = 0
KSB1 220845Z 15007KT 11/08 A3006 RMK A01 T01110084  RH  084%=      5-min Rain = 0
KSB1 220846Z 15007KT 11/08 A3006 RMK A01 T01100084  RH  084%=      5-min Rain = 0
KSB1 220847Z 15007KT 11/08 A3005 RMK A01 T01100084  RH  084%=      5-min Rain = 0
KSB1 220848Z 15006KT 11/08 A3005 RMK A01 T01100084  RH  084%=      5-min Rain = 0
KSB1 220849Z 15006KT 11/08 A3005 RMK A01 T01100084  RH  084%=      5-min Rain = 0
KSB1 220850Z 15006KT 11/09 A3005 RMK A01 T01100085  RH  084%=      5-min Rain = 0
KSB1 220851Z 15006KT 11/08 A3005 RMK A01 T01100084  RH  084%=      5-min Rain = 0
KSB1 220852Z 15006KT 11/08 A3005 RMK A01 T01100084  RH  084%=      5-min Rain = 0
KSB1 220853Z 15006KT 11/08 A3005 RMK A01 T01100084  RH  084%=      5-min Rain = 0
KSB1 220854Z 15007KT 11/08 A3005 RMK A01 T01090084  RH  084%=      5-min Rain = 0
KSB1 220855Z 15007KT 11/08 A3005 RMK A01 T01090084  RH  085%=      5-min Rain = 0
KSB1 220856Z 15007KT 11/08 A3005 RMK A01 T01080084  RH  085%=      5-min Rain = 0
KSB1 220857Z 15007KT 11/08 A3005 RMK A01 T01080084  RH  085%=      5-min Rain = 0
KSB1 220858Z 15007KT 11/08 A3005 RMK A01 T01080084  RH  085%=      5-min Rain = 0
KSB1 220859Z 15006KT 11/08 A3005 RMK A01 T01080084  RH  085%=      5-min Rain = 0
KSB1 220900Z 15006KT 11/08 A3005 RMK A01 T01080084  RH  085%=      5-min Rain = 0
KSB1 220901Z 15006KT 11/08 A3005 RMK A01 T01070084  RH  085%=      5-min Rain = 0
KSB1 220902Z 15006KT 11/08 A3005 RMK A01 T01070083  RH  085%=      5-min Rain = 0
KSB1 220903Z 15007KT 11/08 A3005 RMK A01 T01070084  RH  086%=      5-min Rain = 0
KSB1 220904Z 15007KT 11/08 A3005 RMK A01 T01070084  RH  086%=      5-min Rain = 0
KSB1 220905Z 15006KT 11/08 A3005 RMK A01 T01060083  RH  086%=      5-min Rain = 0
KSB1 220906Z 15006KT 11/08 A3005 RMK A01 T01060084  RH  086%=      5-min Rain = 0
KSB1 220907Z 15007KT 11/08 A3005 RMK A01 T01060084  RH  086%=      5-min Rain = 0
KSB1 220908Z 15007KT 11/08 A3005 RMK A01 T01060084  RH  086%=      5-min Rain = 0
KSB1 220909Z 14007KT 11/08 A3005 RMK A01 T01060083  RH  086%=      5-min Rain = 0
KSB1 220910Z 15007KT 11/08 A3005 RMK A01 T01060084  RH  086%=      5-min Rain = 0
KSB1 220911Z 15006KT 11/08 A3005 RMK A01 T01060084  RH  086%=      5-min Rain = 0
KSB1 220912Z 15006KT 11/08 A3005 RMK A01 T01060084  RH  086%=      5-min Rain = 0
KSB1 220913Z 15006KT 11/08 A3005 RMK A01 T01060084  RH  086%=      5-min Rain = 0
KSB1 220914Z 15006KT 11/08 A3005 RMK A01 T01050083  RH  086%=      5-min Rain = 0
KSB1 220915Z 16005KT 11/08 A3005 RMK A01 T01050083  RH  086%=      5-min Rain = 0
KSB1 220916Z 16006KT 11/08 A3005 RMK A01 T01050083  RH  086%=      5-min Rain = 0
KSB1 220917Z 16005KT 11/08 A3005 RMK A01 T01050083  RH  086%=      5-min Rain = 0
KSB1 220918Z 16005KT 11/08 A3005 RMK A01 T01050083  RH  086%=      5-min Rain = 0
KSB1 220919Z 16005KT 11/08 A3005 RMK A01 T01050083  RH  086%=      5-min Rain = 0
KSB1 220920Z 16006KT 11/08 A3005 RMK A01 T01050083  RH  087%=      5-min Rain = 0
KSB1 220921Z 16005KT 10/08 A3005 RMK A01 T01040083  RH  087%=      5-min Rain = 0
KSB1 220922Z 16005KT 10/08 A3005 RMK A01 T01040083  RH  087%=      5-min Rain = 0
KSB1 220923Z 16006KT 10/08 A3005 RMK A01 T01040083  RH  087%=      5-min Rain = 0
KSB1 220924Z 16006KT 10/08 A3005 RMK A01 T01030082  RH  087%=      5-min Rain = 0
KSB1 220925Z 16006KT 10/08 A3005 RMK A01 T01030082  RH  087%=      5-min Rain = 0
KSB1 220926Z 16006KT 10/08 A3005 RMK A01 T01020082  RH  087%=      5-min Rain = 0
KSB1 220927Z 17006KT 10/08 A3005 RMK A01 T01020082  RH  087%=      5-min Rain = 0
KSB1 220928Z 17006KT 10/08 A3005 RMK A01 T01020082  RH  088%=      5-min Rain = 0
KSB1 220929Z 16006KT 10/08 A3005 RMK A01 T01020082  RH  088%=      5-min Rain = 0
KSB1 220930Z 16006KT 10/08 A3005 RMK A01 T01010082  RH  088%=      5-min Rain = 0
KSB1 220931Z 16006KT 10/08 A3005 RMK A01 T01010082  RH  088%=      5-min Rain = 0
KSB1 220932Z 16006KT 10/08 A3005 RMK A01 T01010082  RH  088%=      5-min Rain = 0
KSB1 220933Z 16006KT 10/08 A3005 RMK A01 T01010083  RH  088%=      5-min Rain = 0
KSB1 220934Z 16007KT 10/08 A3005 RMK A01 T01020083  RH  088%=      5-min Rain = 0
KSB1 220935Z 16006KT 10/08 A3005 RMK A01 T01020083  RH  088%=      5-min Rain = 0
KSB1 220936Z 16007KT 10/08 A3005 RMK A01 T01020083  RH  088%=      5-min Rain = 0
KSB1 220937Z 16007KT 10/08 A3005 RMK A01 T01020082  RH  088%=      5-min Rain = 0
KSB1 220938Z 16006KT 10/08 A3005 RMK A01 T01020083  RH  088%=      5-min Rain = 0
KSB1 220939Z 16006KT 10/08 A3005 RMK A01 T01020083  RH  088%=      5-min Rain = 0
KSB1 220940Z 16006KT 10/08 A3005 RMK A01 T01020083  RH  088%=      5-min Rain = 0
KSB1 220941Z 16006KT 10/08 A3005 RMK A01 T01020083  RH  088%=      5-min Rain = 0
KSB1 220942Z 15006KT 10/08 A3005 RMK A01 T01020083  RH  088%=      5-min Rain = 0
KSB1 220943Z 15007KT 10/08 A3004 RMK A01 T01020083  RH  088%=      5-min Rain = 0
KSB1 220944Z 15007KT 10/08 A3004 RMK A01 T01020083  RH  088%=      5-min Rain = 0
KSB1 220945Z 15006KT 10/08 A3004 RMK A01 T01020083  RH  088%=      5-min Rain = 0
KSB1 220946Z 15006KT 10/08 A3004 RMK A01 T01020083  RH  088%=      5-min Rain = 0
KSB1 220947Z 15006KT 10/08 A3004 RMK A01 T01020083  RH  088%=      5-min Rain = 0
KSB1 220948Z 15005KT 10/08 A3004 RMK A01 T01020083  RH  088%=      5-min Rain = 0
KSB1 220949Z 16005KT 10/08 A3004 RMK A01 T01020083  RH  088%=      5-min Rain = 0
KSB1 220950Z 16005KT 10/08 A3004 RMK A01 T01010083  RH  088%=      5-min Rain = 0
KSB1 220951Z 16005KT 10/08 A3004 RMK A01 T01010082  RH  088%=      5-min Rain = 0
KSB1 220952Z 16005KT 10/08 A3004 RMK A01 T01010083  RH  088%=      5-min Rain = 0
KSB1 220953Z 16005KT 10/08 A3004 RMK A01 T01000082  RH  088%=      5-min Rain = 0
KSB1 220954Z 16005KT 10/08 A3004 RMK A01 T01000082  RH  089%=      5-min Rain = 0
KSB1 220955Z 15006KT 10/08 A3004 RMK A01 T01000082  RH  089%=      5-min Rain = 0
KSB1 220956Z 15006KT 10/08 A3004 RMK A01 T01000083  RH  089%=      5-min Rain = 0
KSB1 220957Z 15007KT 10/08 A3004 RMK A01 T01000083  RH  089%=      5-min Rain = 0
KSB1 220958Z 16006KT 10/08 A3004 RMK A01 T01000083  RH  089%=      5-min Rain = 0
KSB1 220959Z 16006KT 10/08 A3004 RMK A01 T01010083  RH  089%=      5-min Rain = 0
KSB1 221000Z 16006KT 10/08 A3004 RMK A01 T01010083  RH  089%=      5-min Rain = 0
KSB1 221001Z 16007KT 10/08 A3004 RMK A01 T01000083  RH  089%=      5-min Rain = 0
KSB1 221002Z 17007KT 10/08 A3004 RMK A01 T01010083  RH  089%=      5-min Rain = 0
KSB1 221003Z 17007KT 10/08 A3004 RMK A01 T01000083  RH  089%=      5-min Rain = 0
KSB1 221004Z 16007KT 10/08 A3004 RMK A01 T01000082  RH  089%=      5-min Rain = 0
KSB1 221005Z 17007KT 10/08 A3004 RMK A01 T01000083  RH  089%=      5-min Rain = 0
KSB1 221006Z 17007KT 10/08 A3004 RMK A01 T01000083  RH  089%=      5-min Rain = 0
KSB1 221007Z 17006KT 10/08 A3004 RMK A01 T00990082  RH  089%=      5-min Rain = 0
KSB1 221008Z 18005KT 10/08 A3004 RMK A01 T00990082  RH  089%=      5-min Rain = 0
KSB1 221009Z 19005KT 10/08 A3004 RMK A01 T00990082  RH  089%=      5-min Rain = 0
KSB1 221010Z 19005KT 10/08 A3004 RMK A01 T00980081  RH  089%=      5-min Rain = 0
KSB1 221011Z 19005KT 10/08 A3004 RMK A01 T00980081  RH  089%=      5-min Rain = 0
KSB1 221012Z 19004KT 10/08 A3004 RMK A01 T00970080  RH  089%=      5-min Rain = 0
KSB1 221013Z 19004KT 10/08 A3004 RMK A01 T00960080  RH  090%=      5-min Rain = 0
KSB1 221014Z 18004KT 10/08 A3004 RMK A01 T00950079  RH  090%=      5-min Rain = 0
KSB1 221015Z 18003KT 09/08 A3004 RMK A01 T00940078  RH  090%=      5-min Rain = 0
KSB1 221016Z 19003KT 09/08 A3004 RMK A01 T00930077  RH  090%=      5-min Rain = 0
KSB1 221017Z 18002KT 09/08 A3004 RMK A01 T00930078  RH  090%=      5-min Rain = 0
KSB1 221018Z 18003KT 09/08 A3004 RMK A01 T00930078  RH  091%=      5-min Rain = 0
KSB1 221019Z 19003KT 09/08 A3004 RMK A01 T00930079  RH  091%=      5-min Rain = 0
KSB1 221020Z 19003KT 09/08 A3004 RMK A01 T00930080  RH  091%=      5-min Rain = 0
KSB1 221021Z 18004KT 09/08 A3004 RMK A01 T00940082  RH  092%=      5-min Rain = 0
KSB1 221022Z 19003KT 10/08 A3004 RMK A01 T00960083  RH  092%=      5-min Rain = 0
KSB1 221023Z 19003KT 10/08 A3004 RMK A01 T00970083  RH  091%=      5-min Rain = 0
KSB1 221024Z 19004KT 10/08 A3004 RMK A01 T00970082  RH  091%=      5-min Rain = 0
KSB1 221025Z 20003KT 10/08 A3004 RMK A01 T00980083  RH  091%=      5-min Rain = 0
KSB1 221026Z 19004KT 10/08 A3004 RMK A01 T00980083  RH  090%=      5-min Rain = 0
KSB1 221027Z 19003KT 10/08 A3004 RMK A01 T00990083  RH  090%=      5-min Rain = 0
KSB1 221028Z 19004KT 10/08 A3004 RMK A01 T00990083  RH  090%=      5-min Rain = 0
KSB1 221029Z 20003KT 10/08 A3004 RMK A01 T00990083  RH  090%=      5-min Rain = 0
KSB1 221030Z 20003KT 10/08 A3004 RMK A01 T01000084  RH  090%=      5-min Rain = 0
KSB1 221031Z 19003KT 10/08 A3004 RMK A01 T01000083  RH  089%=      5-min Rain = 0
KSB1 221032Z 18003KT 10/08 A3004 RMK A01 T01000083  RH  089%=      5-min Rain = 0
KSB1 221033Z 19004KT 10/08 A3004 RMK A01 T01000083  RH  089%=      5-min Rain = 0
KSB1 221034Z 19003KT 10/08 A3004 RMK A01 T01000083  RH  089%=      5-min Rain = 0
KSB1 221035Z 18003KT 10/08 A3004 RMK A01 T01000082  RH  089%=      5-min Rain = 0
KSB1 221036Z 17003KT 10/08 A3004 RMK A01 T00990082  RH  089%=      5-min Rain = 0
KSB1 221037Z 17004KT 10/08 A3004 RMK A01 T00990083  RH  089%=      5-min Rain = 0
KSB1 221038Z 16004KT 10/08 A3004 RMK A01 T00990083  RH  090%=      5-min Rain = 0
KSB1 221039Z 16004KT 10/08 A3004 RMK A01 T00990083  RH  090%=      5-min Rain = 0
KSB1 221040Z 16003KT 10/08 A3004 RMK A01 T00990083  RH  090%=      5-min Rain = 0
KSB1 221041Z 16003KT 10/08 A3004 RMK A01 T00990083  RH  090%=      5-min Rain = 0
KSB1 221042Z 17003KT 10/08 A3004 RMK A01 T00990083  RH  090%=      5-min Rain = 0
KSB1 221043Z 16003KT 10/08 A3004 RMK A01 T00990083  RH  090%=      5-min Rain = 0
KSB1 221044Z 15004KT 10/08 A3004 RMK A01 T01000084  RH  090%=      5-min Rain = 0
KSB1 221045Z 16004KT 10/08 A3004 RMK A01 T00990083  RH  089%=      5-min Rain = 0
KSB1 221046Z 16004KT 10/08 A3004 RMK A01 T01000083  RH  089%=      5-min Rain = 0
KSB1 221047Z 15004KT 10/08 A3004 RMK A01 T01000083  RH  089%=      5-min Rain = 0
KSB1 221048Z 16004KT 10/08 A3004 RMK A01 T01000083  RH  089%=      5-min Rain = 0
KSB1 221049Z 15005KT 10/08 A3003 RMK A01 T01000083  RH  089%=      5-min Rain = 0
KSB1 221050Z 14005KT 10/08 A3003 RMK A01 T01000083  RH  089%=      5-min Rain = 0
KSB1 221051Z 14005KT 10/08 A3003 RMK A01 T00990082  RH  089%=      5-min Rain = 0
KSB1 221052Z 14005KT 10/08 A3003 RMK A01 T00990083  RH  089%=      5-min Rain = 0
KSB1 221053Z 14006KT 10/08 A3003 RMK A01 T00990083  RH  090%=      5-min Rain = 0
KSB1 221054Z 13005KT 10/08 A3003 RMK A01 T00990083  RH  090%=      5-min Rain = 0
KSB1 221055Z 13005KT 10/08 A3003 RMK A01 T00990083  RH  090%=      5-min Rain = 0
KSB1 221056Z 12003KT 10/08 A3003 RMK A01 T00990083  RH  090%=      5-min Rain = 0
KSB1 221057Z 12001KT 10/08 A3003 RMK A01 T00980082  RH  090%=      5-min Rain = 0
KSB1 221058Z 11002KT 10/08 A3003 RMK A01 T00980082  RH  090%=      5-min Rain = 0
KSB1 221059Z 11002KT 10/08 A3003 RMK A01 T00970082  RH  090%=      5-min Rain = 0
KSB1 221100Z 12002KT 10/08 A3003 RMK A01 T00970083  RH  091%=      5-min Rain = 0
KSB1 221101Z 11002KT 10/08 A3003 RMK A01 T00980083  RH  091%=      5-min Rain = 0
KSB1 221102Z 12002KT 10/08 A3003 RMK A01 T00980084  RH  091%=      5-min Rain = 0
KSB1 221103Z 10002KT 10/08 A3003 RMK A01 T00990084  RH  090%=      5-min Rain = 0
KSB1 221104Z 05001KT 10/08 A3003 RMK A01 T00990083  RH  090%=      5-min Rain = 0
KSB1 221105Z 08002KT 10/08 A3003 RMK A01 T00990083  RH  090%=      5-min Rain = 0
KSB1 221106Z 08002KT 10/08 A3003 RMK A01 T00990084  RH  090%=      5-min Rain = 0
KSB1 221107Z 07002KT 10/08 A3003 RMK A01 T01000084  RH  090%=      5-min Rain = 0
KSB1 221108Z 08002KT 10/08 A3003 RMK A01 T01000084  RH  090%=      5-min Rain = 0
KSB1 221109Z 08002KT 10/08 A3003 RMK A01 T01010084  RH  089%=      5-min Rain = 0
KSB1 221110Z 09002KT 10/08 A3003 RMK A01 T01010084  RH  089%=      5-min Rain = 0
KSB1 221111Z 08002KT 10/08 A3003 RMK A01 T01010084  RH  089%=      5-min Rain = 0
KSB1 221112Z 09002KT 10/08 A3003 RMK A01 T01010084  RH  089%=      5-min Rain = 0
KSB1 221113Z 10002KT 10/08 A3003 RMK A01 T01010084  RH  089%=      5-min Rain = 0
KSB1 221114Z 11002KT 10/08 A3003 RMK A01 T01010084  RH  089%=      5-min Rain = 0
KSB1 221115Z 11002KT 10/08 A3003 RMK A01 T01010084  RH  089%=      5-min Rain = 0
KSB1 221116Z 11003KT 10/08 A3003 RMK A01 T01020084  RH  089%=      5-min Rain = 0
KSB1 221117Z 11003KT 10/08 A3003 RMK A01 T01020084  RH  089%=      5-min Rain = 0
KSB1 221118Z 11003KT 10/08 A3003 RMK A01 T01020084  RH  089%=      5-min Rain = 0
KSB1 221119Z 12003KT 10/08 A3004 RMK A01 T01020084  RH  089%=      5-min Rain = 0
KSB1 221120Z 12003KT 10/09 A3004 RMK A01 T01020085  RH  089%=      5-min Rain = 0
KSB1 221121Z 12003KT 10/08 A3004 RMK A01 T01020084  RH  089%=      5-min Rain = 0
KSB1 221122Z 13004KT 10/08 A3004 RMK A01 T01020084  RH  088%=      5-min Rain = 0
KSB1 221123Z 13004KT 10/08 A3004 RMK A01 T01020084  RH  089%=      5-min Rain = 0
KSB1 221124Z 14004KT 10/08 A3004 RMK A01 T01020084  RH  088%=      5-min Rain = 0
KSB1 221125Z 14003KT 10/08 A3004 RMK A01 T01020084  RH  088%=      5-min Rain = 0
KSB1 221126Z 14004KT 10/08 A3004 RMK A01 T01020084  RH  089%=      5-min Rain = 0
KSB1 221127Z 13003KT 10/08 A3004 RMK A01 T01020084  RH  089%=      5-min Rain = 0
KSB1 221128Z 13003KT 10/08 A3004 RMK A01 T01020084  RH  089%=      5-min Rain = 0
KSB1 221129Z 13003KT 10/08 A3004 RMK A01 T01020084  RH  089%=      5-min Rain = 0
KSB1 221130Z 13003KT 10/08 A3003 RMK A01 T01020084  RH  089%=      5-min Rain = 0
KSB1 221131Z 13003KT 10/09 A3003 RMK A01 T01020085  RH  089%=      5-min Rain = 0
KSB1 221132Z 13003KT 10/09 A3003 RMK A01 T01020085  RH  089%=      5-min Rain = 0
KSB1 221133Z 13003KT 10/09 A3003 RMK A01 T01020085  RH  089%=      5-min Rain = 0
KSB1 221134Z 14002KT 10/08 A3004 RMK A01 T01020084  RH  089%=      5-min Rain = 0
KSB1 221135Z 16002KT 10/08 A3004 RMK A01 T01020084  RH  089%=      5-min Rain = 0
KSB1 221136Z 15002KT 10/08 A3004 RMK A01 T01020084  RH  089%=      5-min Rain = 0
KSB1 221137Z 13003KT 10/08 A3004 RMK A01 T01010084  RH  089%=      5-min Rain = 0
KSB1 221138Z 14002KT 10/08 A3004 RMK A01 T01010084  RH  089%=      5-min Rain = 0
KSB1 221139Z 14002KT 10/08 A3004 RMK A01 T01010084  RH  089%=      5-min Rain = 0
KSB1 221140Z 15003KT 10/08 A3004 RMK A01 T01010084  RH  089%=      5-min Rain = 0
KSB1 221141Z 15002KT 10/08 A3004 RMK A01 T01010084  RH  089%=      5-min Rain = 0
KSB1 221142Z 14002KT 10/08 A3004 RMK A01 T01000083  RH  089%=      5-min Rain = 0
KSB1 221143Z 14002KT 10/08 A3004 RMK A01 T01000083  RH  089%=      5-min Rain = 0
KSB1 221144Z 15002KT 10/08 A3004 RMK A01 T00990083  RH  089%=      5-min Rain = 0
KSB1 221145Z 16002KT 10/08 A3004 RMK A01 T00990083  RH  090%=      5-min Rain = 0
KSB1 221146Z 17002KT 10/08 A3004 RMK A01 T00990083  RH  090%=      5-min Rain = 0
KSB1 221147Z 16001KT 10/08 A3004 RMK A01 T00990084  RH  090%=      5-min Rain = 0
KSB1 221148Z 15000KT 10/08 A3004 RMK A01 T00990084  RH  090%=      5-min Rain = 0
KSB1 221149Z 14000KT 10/08 A3004 RMK A01 T00990084  RH  090%=      5-min Rain = 0
KSB1 221150Z 00000KT 10/08 A3004 RMK A01 T00990084  RH  091%=      5-min Rain = 0
KSB1 221151Z 00000KT 10/09 A3004 RMK A01 T01000085  RH  090%=      5-min Rain = 0
KSB1 221152Z 00000KT 10/09 A3004 RMK A01 T01000085  RH  090%=      5-min Rain = 0
KSB1 221153Z 00000KT 10/09 A3004 RMK A01 T01010085  RH  090%=      5-min Rain = 0
KSB1 221154Z 00000KT 10/09 A3004 RMK A01 T01010085  RH  090%=      5-min Rain = 0
KSB1 221155Z 00000KT 10/09 A3004 RMK A01 T01020086  RH  090%=      5-min Rain = 0
KSB1 221156Z 00000KT 10/09 A3004 RMK A01 T01020086  RH  089%=      5-min Rain = 0
KSB1 221157Z 00000KT 10/09 A3004 RMK A01 T01020086  RH  089%=      5-min Rain = 0
KSB1 221158Z 00000KT 10/09 A3004 RMK A01 T01020086  RH  089%=      5-min Rain = 0
KSB1 221159Z 14001KT 10/09 A3004 RMK A01 T01020086  RH  089%=      5-min Rain = 0
KSB1 221200Z 14000KT 10/09 A3004 RMK A01 T01020086  RH  090%=      5-min Rain = 0
KSB1 221201Z 00000KT 10/09 A3004 RMK A01 T01020085  RH  090%=      5-min Rain = 0
KSB1 221202Z 00000KT 10/09 A3004 RMK A01 T01020086  RH  090%=      5-min Rain = 0
KSB1 221203Z 15000KT 10/09 A3004 RMK A01 T01020086  RH  090%=      5-min Rain = 0
KSB1 221204Z 30001KT 10/09 A3004 RMK A01 T01030086  RH  089%=      5-min Rain = 0
KSB1 221205Z 26001KT 10/09 A3004 RMK A01 T01030086  RH  089%=      5-min Rain = 0
KSB1 221206Z 26002KT 10/09 A3004 RMK A01 T01040086  RH  089%=      5-min Rain = 0
KSB1 221207Z 26001KT 10/09 A3004 RMK A01 T01040086  RH  089%=      5-min Rain = 0
KSB1 221208Z 28001KT 10/09 A3004 RMK A01 T01040086  RH  088%=      5-min Rain = 0
KSB1 221209Z 28001KT 10/09 A3005 RMK A01 T01040085  RH  088%=      5-min Rain = 0
KSB1 221210Z 28001KT 10/09 A3005 RMK A01 T01030085  RH  089%=      5-min Rain = 0
KSB1 221211Z 27002KT 10/09 A3005 RMK A01 T01030085  RH  089%=      5-min Rain = 0
KSB1 221212Z 27002KT 10/09 A3005 RMK A01 T01020085  RH  089%=      5-min Rain = 0
KSB1 221213Z 28002KT 10/09 A3005 RMK A01 T01020085  RH  089%=      5-min Rain = 0
KSB1 221214Z 28002KT 10/08 A3005 RMK A01 T01010084  RH  089%=      5-min Rain = 0
KSB1 221215Z 28001KT 10/08 A3005 RMK A01 T01010084  RH  089%=      5-min Rain = 0
KSB1 221216Z 28001KT 10/09 A3005 RMK A01 T01010085  RH  090%=      5-min Rain = 0
KSB1 221217Z 28001KT 10/09 A3005 RMK A01 T01010085  RH  090%=      5-min Rain = 0
KSB1 221218Z 28001KT 10/09 A3005 RMK A01 T01010085  RH  090%=      5-min Rain = 0
KSB1 221219Z 27001KT 10/09 A3005 RMK A01 T01010085  RH  090%=      5-min Rain = 0
KSB1 221220Z 27000KT 10/09 A3005 RMK A01 T01020086  RH  090%=      5-min Rain = 0
KSB1 221221Z 00000KT 10/09 A3005 RMK A01 T01030087  RH  090%=      5-min Rain = 0
KSB1 221222Z 00000KT 10/09 A3005 RMK A01 T01030087  RH  089%=      5-min Rain = 0
KSB1 221223Z 00000KT 10/09 A3004 RMK A01 T01040087  RH  089%=      5-min Rain = 0
KSB1 221224Z 20000KT 10/09 A3004 RMK A01 T01040087  RH  089%=      5-min Rain = 0
KSB1 221225Z 20000KT 10/09 A3004 RMK A01 T01040087  RH  089%=      5-min Rain = 0
KSB1 221226Z 20000KT 10/09 A3004 RMK A01 T01040086  RH  089%=      5-min Rain = 0
KSB1 221227Z 21001KT 10/09 A3004 RMK A01 T01040087  RH  089%=      5-min Rain = 0
KSB1 221228Z 23001KT 10/09 A3005 RMK A01 T01040086  RH  089%=      5-min Rain = 0
KSB1 221229Z 22001KT 10/09 A3005 RMK A01 T01030085  RH  089%=      5-min Rain = 0
KSB1 221230Z 21000KT 10/09 A3005 RMK A01 T01020085  RH  089%=      5-min Rain = 0
KSB1 221231Z 18000KT 10/09 A3004 RMK A01 T01020085  RH  089%=      5-min Rain = 0
KSB1 221232Z 16000KT 10/09 A3004 RMK A01 T01010085  RH  089%=      5-min Rain = 0
KSB1 221233Z 16000KT 10/09 A3004 RMK A01 T01010085  RH  090%=      5-min Rain = 0
KSB1 221234Z 00000KT 10/09 A3005 RMK A01 T01010086  RH  090%=      5-min Rain = 0
KSB1 221235Z 00000KT 10/09 A3005 RMK A01 T01010086  RH  090%=      5-min Rain = 0
KSB1 221236Z 15000KT 10/09 A3005 RMK A01 T01010086  RH  090%=      5-min Rain = 0
KSB1 221237Z 35001KT 10/09 A3005 RMK A01 T01020087  RH  090%=      5-min Rain = 0
KSB1 221238Z 35001KT 10/09 A3005 RMK A01 T01020086  RH  090%=      5-min Rain = 0
KSB1 221239Z 35002KT 10/09 A3005 RMK A01 T01030086  RH  089%=      5-min Rain = 0
KSB1 221240Z 35002KT 10/09 A3005 RMK A01 T01030086  RH  089%=      5-min Rain = 0
KSB1 221241Z 34002KT 10/09 A3005 RMK A01 T01030086  RH  089%=      5-min Rain = 0
KSB1 221242Z 34002KT 10/09 A3005 RMK A01 T01030086  RH  089%=      5-min Rain = 0
KSB1 221243Z 34001KT 10/09 A3005 RMK A01 T01030085  RH  089%=      5-min Rain = 0
KSB1 221244Z 34002KT 10/08 A3005 RMK A01 T01020084  RH  089%=      5-min Rain = 0
KSB1 221245Z 01001KT 10/09 A3005 RMK A01 T01020085  RH  089%=      5-min Rain = 0
KSB1 221246Z 02001KT 10/09 A3005 RMK A01 T01010085  RH  090%=      5-min Rain = 0
KSB1 221247Z 02001KT 10/09 A3005 RMK A01 T01000085  RH  090%=      5-min Rain = 0
KSB1 221248Z 36001KT 10/09 A3005 RMK A01 T01000085  RH  090%=      5-min Rain = 0
KSB1 221249Z 34001KT 10/09 A3005 RMK A01 T01010086  RH  090%=      5-min Rain = 0
KSB1 221250Z 32002KT 10/09 A3005 RMK A01 T01020087  RH  090%=      5-min Rain = 0
KSB1 221251Z 33002KT 10/09 A3005 RMK A01 T01030087  RH  090%=      5-min Rain = 0
KSB1 221252Z 33002KT 10/09 A3006 RMK A01 T01040087  RH  089%=      5-min Rain = 0
KSB1 221253Z 33002KT 10/09 A3006 RMK A01 T01040087  RH  089%=      5-min Rain = 0
KSB1 221254Z 35002KT 11/09 A3006 RMK A01 T01050087  RH  089%=      5-min Rain = 0
KSB1 221255Z 35002KT 10/09 A3006 RMK A01 T01040086  RH  088%=      5-min Rain = 0
KSB1 221256Z 01002KT 11/09 A3006 RMK A01 T01050086  RH  088%=      5-min Rain = 0
KSB1 221257Z 01002KT 10/09 A3006 RMK A01 T01040086  RH  089%=      5-min Rain = 0
KSB1 221258Z 03002KT 10/09 A3006 RMK A01 T01040086  RH  089%=      5-min Rain = 0
KSB1 221259Z 03002KT 10/09 A3006 RMK A01 T01040086  RH  089%=      5-min Rain = 0
KSB1 221300Z 02002KT 10/09 A3006 RMK A01 T01040087  RH  089%=      5-min Rain = 0
KSB1 221301Z 01001KT 10/09 A3006 RMK A01 T01040086  RH  089%=      5-min Rain = 0
KSB1 221302Z 01001KT 10/09 A3006 RMK A01 T01040087  RH  089%=      5-min Rain = 0
KSB1 221303Z 01001KT 10/09 A3006 RMK A01 T01040086  RH  089%=      5-min Rain = 0
KSB1 221304Z 04001KT 11/09 A3006 RMK A01 T01050087  RH  089%=      5-min Rain = 0
KSB1 221305Z 01001KT 11/09 A3006 RMK A01 T01050087  RH  089%=      5-min Rain = 0
KSB1 221306Z 02001KT 11/09 A3006 RMK A01 T01050087  RH  088%=      5-min Rain = 0
KSB1 221307Z 02001KT 11/09 A3006 RMK A01 T01050087  RH  088%=      5-min Rain = 0
KSB1 221308Z 01001KT 11/09 A3006 RMK A01 T01050086  RH  088%=      5-min Rain = 0
KSB1 221309Z 02001KT 11/09 A3006 RMK A01 T01050086  RH  088%=      5-min Rain = 0
KSB1 221310Z 03001KT 11/09 A3006 RMK A01 T01060087  RH  088%=      5-min Rain = 0
KSB1 221311Z 04000KT 11/09 A3006 RMK A01 T01050087  RH  088%=      5-min Rain = 0
KSB1 221312Z 07000KT 11/09 A3006 RMK A01 T01050087  RH  088%=      5-min Rain = 0
KSB1 221313Z 00000KT 11/09 A3006 RMK A01 T01050087  RH  088%=      5-min Rain = 0
KSB1 221314Z 00000KT 11/09 A3006 RMK A01 T01050087  RH  088%=      5-min Rain = 0
KSB1 221315Z 00000KT 11/09 A3006 RMK A01 T01050087  RH  088%=      5-min Rain = 0
KSB1 221316Z 00000KT 11/09 A3006 RMK A01 T01050087  RH  088%=      5-min Rain = 0
KSB1 221317Z 00000KT 11/09 A3006 RMK A01 T01050087  RH  088%=      5-min Rain = 0
KSB1 221318Z 00000KT 11/09 A3006 RMK A01 T01060087  RH  088%=      5-min Rain = 0
KSB1 221319Z 00000KT 11/09 A3006 RMK A01 T01050087  RH  088%=      5-min Rain = 0
KSB1 221320Z 00000KT 11/09 A3006 RMK A01 T01050086  RH  088%=      5-min Rain = 0
KSB1 221321Z 00000KT 11/09 A3006 RMK A01 T01050086  RH  088%=      5-min Rain = 0
KSB1 221322Z 00000KT 11/09 A3006 RMK A01 T01050087  RH  088%=      5-min Rain = 0
KSB1 221323Z 00000KT 11/09 A3006 RMK A01 T01060087  RH  088%=      5-min Rain = 0
KSB1 221324Z 00000KT 11/09 A3007 RMK A01 T01060087  RH  088%=      5-min Rain = 0
KSB1 221325Z 00000KT 11/09 A3007 RMK A01 T01050086  RH  088%=      5-min Rain = 0
KSB1 221326Z 00000KT 11/09 A3007 RMK A01 T01050087  RH  088%=      5-min Rain = 0
KSB1 221327Z 00000KT 11/09 A3007 RMK A01 T01050087  RH  088%=      5-min Rain = 0
KSB1 221328Z 00000KT 11/09 A3007 RMK A01 T01050087  RH  088%=      5-min Rain = 0
KSB1 221329Z 00000KT 11/09 A3007 RMK A01 T01060087  RH  088%=      5-min Rain = 0
KSB1 221330Z 00000KT 11/09 A3007 RMK A01 T01050087  RH  088%=      5-min Rain = 0
KSB1 221331Z 00000KT 11/09 A3007 RMK A01 T01050086  RH  088%=      5-min Rain = 0
KSB1 221332Z 00000KT 11/09 A3007 RMK A01 T01050086  RH  088%=      5-min Rain = 0
KSB1 221333Z 00000KT 11/09 A3007 RMK A01 T01060087  RH  088%=      5-min Rain = 0
KSB1 221334Z 13000KT 11/09 A3007 RMK A01 T01060087  RH  088%=      5-min Rain = 0
KSB1 221335Z 13000KT 11/09 A3007 RMK A01 T01070087  RH  088%=      5-min Rain = 0
KSB1 221336Z 14001KT 11/09 A3007 RMK A01 T01070087  RH  088%=      5-min Rain = 0
KSB1 221337Z 16000KT 11/09 A3007 RMK A01 T01070087  RH  087%=      5-min Rain = 0
KSB1 221338Z 18000KT 11/09 A3007 RMK A01 T01070087  RH  087%=      5-min Rain = 0
KSB1 221339Z 00000KT 11/09 A3007 RMK A01 T01070087  RH  087%=      5-min Rain = 0
KSB1 221340Z 16000KT 11/09 A3007 RMK A01 T01070087  RH  087%=      5-min Rain = 0
KSB1 221341Z 16000KT 11/09 A3007 RMK A01 T01070087  RH  088%=      5-min Rain = 0
KSB1 221342Z 16000KT 11/09 A3007 RMK A01 T01070088  RH  088%=      5-min Rain = 0
KSB1 221343Z 17001KT 11/09 A3007 RMK A01 T01080088  RH  087%=      5-min Rain = 0
KSB1 221344Z 17001KT 11/09 A3007 RMK A01 T01080088  RH  087%=      5-min Rain = 0
KSB1 221345Z 16000KT 11/09 A3007 RMK A01 T01080088  RH  088%=      5-min Rain = 0
KSB1 221346Z 00000KT 11/09 A3007 RMK A01 T01090089  RH  088%=      5-min Rain = 0
KSB1 221347Z 19000KT 11/09 A3007 RMK A01 T01090089  RH  088%=      5-min Rain = 0
KSB1 221348Z 22000KT 11/09 A3007 RMK A01 T01090089  RH  088%=      5-min Rain = 0
KSB1 221349Z 20000KT 11/09 A3007 RMK A01 T01090089  RH  088%=      5-min Rain = 0
KSB1 221350Z 00000KT 11/09 A3007 RMK A01 T01090089  RH  087%=      5-min Rain = 0
KSB1 221351Z 00000KT 11/09 A3007 RMK A01 T01100089  RH  087%=      5-min Rain = 0
KSB1 221352Z 00000KT 11/09 A3007 RMK A01 T01100089  RH  087%=      5-min Rain = 0
KSB1 221353Z 00000KT 11/09 A3007 RMK A01 T01110090  RH  087%=      5-min Rain = 0
KSB1 221354Z 00000KT 11/09 A3008 RMK A01 T01120090  RH  086%=      5-min Rain = 0
KSB1 221355Z 00000KT 11/09 A3008 RMK A01 T01130089  RH  085%=      5-min Rain = 0
KSB1 221356Z 00000KT 11/09 A3008 RMK A01 T01140089  RH  085%=      5-min Rain = 0
KSB1 221357Z 00000KT 12/09 A3008 RMK A01 T01150090  RH  085%=      5-min Rain = 0
KSB1 221358Z 00000KT 12/09 A3008 RMK A01 T01150090  RH  084%=      5-min Rain = 0
KSB1 221359Z 00000KT 12/09 A3008 RMK A01 T01170090  RH  084%=      5-min Rain = 0
KSB1 221400Z 07000KT 12/09 A3008 RMK A01 T01180090  RH  083%=      5-min Rain = 0
KSB1 221401Z 04000KT 12/09 A3008 RMK A01 T01210091  RH  082%=      5-min Rain = 0
KSB1 221402Z 02001KT 12/09 A3008 RMK A01 T01240092  RH  081%=      5-min Rain = 0
KSB1 221403Z 02001KT 13/09 A3008 RMK A01 T01250092  RH  080%=      5-min Rain = 0
KSB1 221404Z 02000KT 13/09 A3008 RMK A01 T01250091  RH  080%=      5-min Rain = 0
KSB1 221405Z 03000KT 13/09 A3008 RMK A01 T01250090  RH  079%=      5-min Rain = 0
KSB1 221406Z 05001KT 13/09 A3008 RMK A01 T01250090  RH  079%=      5-min Rain = 0
KSB1 221407Z 05000KT 13/09 A3008 RMK A01 T01250089  RH  079%=      5-min Rain = 0
KSB1 221408Z 05000KT 12/09 A3008 RMK A01 T01240090  RH  079%=      5-min Rain = 0
KSB1 221409Z 06001KT 13/09 A3008 RMK A01 T01250090  RH  079%=      5-min Rain = 0
KSB1 221410Z 11002KT 13/09 A3008 RMK A01 T01250090  RH  079%=      5-min Rain = 0
KSB1 221411Z 13001KT 13/09 A3008 RMK A01 T01250089  RH  079%=      5-min Rain = 0
KSB1 221412Z 11001KT 12/09 A3008 RMK A01 T01240088  RH  079%=      5-min Rain = 0
KSB1 221413Z 10001KT 12/09 A3008 RMK A01 T01240088  RH  079%=      5-min Rain = 0
KSB1 221414Z 11002KT 12/09 A3008 RMK A01 T01240089  RH  079%=      5-min Rain = 0
KSB1 221415Z 12002KT 12/09 A3008 RMK A01 T01230088  RH  079%=      5-min Rain = 0
KSB1 221416Z 10002KT 12/09 A3008 RMK A01 T01220088  RH  079%=      5-min Rain = 0
KSB1 221417Z 11002KT 12/09 A3008 RMK A01 T01220088  RH  080%=      5-min Rain = 0
KSB1 221418Z 07001KT 12/09 A3008 RMK A01 T01220088  RH  080%=      5-min Rain = 0
KSB1 221419Z 10001KT 12/09 A3009 RMK A01 T01220089  RH  080%=      5-min Rain = 0
KSB1 221420Z 11002KT 12/09 A3009 RMK A01 T01230089  RH  080%=      5-min Rain = 0
KSB1 221421Z 11002KT 12/09 A3009 RMK A01 T01240090  RH  080%=      5-min Rain = 0
KSB1 221422Z 11003KT 12/09 A3009 RMK A01 T01240088  RH  079%=      5-min Rain = 0
KSB1 221423Z 13003KT 12/09 A3009 RMK A01 T01240089  RH  079%=      5-min Rain = 0
KSB1 221424Z 11001KT 12/09 A3009 RMK A01 T01240090  RH  080%=      5-min Rain = 0
KSB1 221425Z 12003KT 13/09 A3009 RMK A01 T01250091  RH  080%=      5-min Rain = 0
KSB1 221426Z 13004KT 13/09 A3009 RMK A01 T01250089  RH  079%=      5-min Rain = 0
KSB1 221427Z 12004KT 13/09 A3009 RMK A01 T01250089  RH  079%=      5-min Rain = 0
KSB1 221428Z 13003KT 12/09 A3009 RMK A01 T01240089  RH  079%=      5-min Rain = 0
KSB1 221429Z 12003KT 12/09 A3009 RMK A01 T01240089  RH  079%=      5-min Rain = 0
KSB1 221430Z 13004KT 12/09 A3009 RMK A01 T01240089  RH  079%=      5-min Rain = 0
KSB1 221431Z 11004KT 12/09 A3009 RMK A01 T01240089  RH  079%=      5-min Rain = 0
KSB1 221432Z 11005KT 12/09 A3009 RMK A01 T01240088  RH  079%=      5-min Rain = 0
KSB1 221433Z 11005KT 12/09 A3009 RMK A01 T01240090  RH  080%=      5-min Rain = 0
KSB1 221434Z 11005KT 12/09 A3009 RMK A01 T01240090  RH  080%=      5-min Rain = 0
KSB1 221435Z 13004KT 12/09 A3009 RMK A01 T01240090  RH  080%=      5-min Rain = 0
KSB1 221436Z 14004KT 12/09 A3009 RMK A01 T01240090  RH  080%=      5-min Rain = 0
KSB1 221437Z 14005KT 13/09 A3009 RMK A01 T01250091  RH  080%=      5-min Rain = 0
KSB1 221438Z 14005KT 13/09 A3009 RMK A01 T01250090  RH  079%=      5-min Rain = 0
KSB1 221439Z 13006KT 13/09 A3009 RMK A01 T01260090  RH  079%=      5-min Rain = 0
KSB1 221440Z 12005KT 13/09 A3009 RMK A01 T01250090  RH  079%=      5-min Rain = 0
KSB1 221441Z 12005KT 13/09 A3009 RMK A01 T01250090  RH  079%=      5-min Rain = 0
KSB1 221442Z 13006KT 13/09 A3009 RMK A01 T01250090  RH  079%=      5-min Rain = 0
KSB1 221443Z 13006KT 13/09 A3009 RMK A01 T01260090  RH  079%=      5-min Rain = 0
KSB1 221444Z 14005KT 13/09 A3009 RMK A01 T01260092  RH  080%=      5-min Rain = 0
KSB1 221445Z 13006KT 13/09 A3009 RMK A01 T01270092  RH  079%=      5-min Rain = 0
KSB1 221446Z 14006KT 13/09 A3009 RMK A01 T01280091  RH  078%=      5-min Rain = 0
KSB1 221447Z 14007KT 13/09 A3009 RMK A01 T01270091  RH  079%=      5-min Rain = 0
KSB1 221448Z 13006KT 13/09 A3009 RMK A01 T01270090  RH  078%=      5-min Rain = 0
KSB1 221449Z 14006KT 13/09 A3009 RMK A01 T01270090  RH  078%=      5-min Rain = 0
KSB1 221450Z 14005KT 13/09 A3009 RMK A01 T01270090  RH  078%=      5-min Rain = 0
KSB1 221451Z 14004KT 13/09 A3009 RMK A01 T01270092  RH  079%=      5-min Rain = 0
KSB1 221452Z 13005KT 13/09 A3009 RMK A01 T01290092  RH  078%=      5-min Rain = 0
KSB1 221453Z 14005KT 13/09 A301 RMK A01 T01300092  RH  077%=      5-min Rain = 0
KSB1 221454Z 14005KT 13/09 A301 RMK A01 T01300091  RH  077%=      5-min Rain = 0
KSB1 221455Z 13005KT 13/09 A301 RMK A01 T01300091  RH  077%=      5-min Rain = 0
KSB1 221456Z 12004KT 13/09 A301 RMK A01 T01300091  RH  077%=      5-min Rain = 0
KSB1 221457Z 14005KT 13/09 A301 RMK A01 T01300091  RH  077%=      5-min Rain = 0
KSB1 221458Z 14004KT 13/09 A301 RMK A01 T01300091  RH  077%=      5-min Rain = 0
KSB1 221459Z 14005KT 13/09 A301 RMK A01 T01300091  RH  078%=      5-min Rain = 0
KSB1 221500Z 15005KT 13/09 A301 RMK A01 T01300091  RH  078%=      5-min Rain = 0
KSB1 221501Z 15005KT 13/09 A301 RMK A01 T01310091  RH  077%=      5-min Rain = 0
KSB1 221502Z 15004KT 13/09 A301 RMK A01 T01310091  RH  077%=      5-min Rain = 0
KSB1 221503Z 15004KT 13/09 A301 RMK A01 T01320092  RH  077%=      5-min Rain = 0
KSB1 221504Z 15004KT 13/09 A301 RMK A01 T01330092  RH  076%=      5-min Rain = 0
KSB1 221505Z 15005KT 13/09 A3009 RMK A01 T01330091  RH  076%=      5-min Rain = 0
KSB1 221506Z 14005KT 13/09 A3009 RMK A01 T01330092  RH  076%=      5-min Rain = 0
KSB1 221507Z 14005KT 13/09 A3009 RMK A01 T01330092  RH  076%=      5-min Rain = 0
KSB1 221508Z 14006KT 13/09 A3009 RMK A01 T01340093  RH  076%=      5-min Rain = 0
KSB1 221509Z 13005KT 14/09 A3009 RMK A01 T01350092  RH  075%=      5-min Rain = 0
KSB1 221510Z 13005KT 14/09 A3009 RMK A01 T01350092  RH  075%=      5-min Rain = 0
KSB1 221511Z 13006KT 14/09 A3009 RMK A01 T01350091  RH  075%=      5-min Rain = 0
KSB1 221512Z 13005KT 13/09 A3009 RMK A01 T01340091  RH  075%=      5-min Rain = 0
KSB1 221513Z 14004KT 13/09 A3009 RMK A01 T01340093  RH  076%=      5-min Rain = 0
KSB1 221514Z 13005KT 14/09 A3009 RMK A01 T01350092  RH  075%=      5-min Rain = 0
KSB1 221515Z 13005KT 14/09 A3009 RMK A01 T01360093  RH  075%=      5-min Rain = 0
KSB1 221516Z 13005KT 14/09 A3009 RMK A01 T01370092  RH  074%=      5-min Rain = 0
KSB1 221517Z 14005KT 14/09 A301 RMK A01 T01360093  RH  075%=      5-min Rain = 0
KSB1 221518Z 13004KT 14/09 A301 RMK A01 T01370092  RH  074%=      5-min Rain = 0
KSB1 221519Z 13004KT 14/09 A301 RMK A01 T01380093  RH  074%=      5-min Rain = 0
KSB1 221520Z 14005KT 14/09 A301 RMK A01 T01390094  RH  074%=      5-min Rain = 0
KSB1 221521Z 12004KT 14/09 A301 RMK A01 T01400092  RH  073%=      5-min Rain = 0
KSB1 221522Z 12004KT 14/09 A301 RMK A01 T01400093  RH  073%=      5-min Rain = 0
KSB1 221523Z 13005KT 14/09 A301 RMK A01 T01410093  RH  073%=      5-min Rain = 0
KSB1 221524Z 13005KT 14/09 A301 RMK A01 T01410092  RH  072%=      5-min Rain = 0
KSB1 221525Z 14005KT 14/09 A301 RMK A01 T01410092  RH  072%=      5-min Rain = 0
KSB1 221526Z 13004KT 14/09 A301 RMK A01 T01420094  RH  073%=      5-min Rain = 0
KSB1 221527Z 13005KT 14/09 A301 RMK A01 T01430092  RH  071%=      5-min Rain = 0
KSB1 221528Z 14006KT 14/09 A301 RMK A01 T01430093  RH  072%=      5-min Rain = 0
KSB1 221529Z 15005KT 14/09 A301 RMK A01 T01430091  RH  071%=      5-min Rain = 0
KSB1 221530Z 14004KT 14/09 A3009 RMK A01 T01430092  RH  072%=      5-min Rain = 0
KSB1 221531Z 16005KT 14/09 A3009 RMK A01 T01430092  RH  071%=      5-min Rain = 0
KSB1 221532Z 15005KT 14/09 A3009 RMK A01 T01430092  RH  071%=      5-min Rain = 0
KSB1 221533Z 13003KT 14/09 A3009 RMK A01 T01430092  RH  072%=      5-min Rain = 0
KSB1 221534Z 15003KT 14/09 A3009 RMK A01 T01420092  RH  072%=      5-min Rain = 0
KSB1 221535Z 14003KT 14/09 A3009 RMK A01 T01420093  RH  072%=      5-min Rain = 0
KSB1 221536Z 11004KT 14/09 A3009 RMK A01 T01440094  RH  072%=      5-min Rain = 0
KSB1 221537Z 11003KT 14/09 A3009 RMK A01 T01440092  RH  071%=      5-min Rain = 0
KSB1 221538Z 14004KT 14/09 A3009 RMK A01 T01440094  RH  072%=      5-min Rain = 0
KSB1 221539Z 13004KT 15/09 A3009 RMK A01 T01450094  RH  072%=      5-min Rain = 0
KSB1 221540Z 12003KT 15/10 A3009 RMK A01 T01470095  RH  071%=      5-min Rain = 0
KSB1 221541Z 14005KT 15/09 A3009 RMK A01 T01470093  RH  070%=      5-min Rain = 0
KSB1 221542Z 14005KT 15/09 A3009 RMK A01 T01480093  RH  070%=      5-min Rain = 0
KSB1 221543Z 15006KT 15/09 A3009 RMK A01 T01480094  RH  070%=      5-min Rain = 0
KSB1 221544Z 15006KT 15/09 A3009 RMK A01 T01490092  RH  069%=      5-min Rain = 0
KSB1 221545Z 14006KT 15/09 A3009 RMK A01 T01490092  RH  069%=      5-min Rain = 0
KSB1 221546Z 14005KT 15/09 A3009 RMK A01 T01490093  RH  069%=      5-min Rain = 0
KSB1 221547Z 14004KT 15/09 A3009 RMK A01 T01500094  RH  069%=      5-min Rain = 0
KSB1 221548Z 15005KT 15/09 A3009 RMK A01 T01510093  RH  068%=      5-min Rain = 0
KSB1 221549Z 15005KT 15/09 A3009 RMK A01 T01520094  RH  068%=      5-min Rain = 0
KSB1 221550Z 15004KT 15/09 A3009 RMK A01 T01530093  RH  068%=      5-min Rain = 0
KSB1 221551Z 14002KT 15/09 A3009 RMK A01 T01520093  RH  068%=      5-min Rain = 0
KSB1 221552Z 15003KT 15/09 A3009 RMK A01 T01520093  RH  068%=      5-min Rain = 0
KSB1 221553Z 15004KT 15/10 A3009 RMK A01 T01540095  RH  067%=      5-min Rain = 0
KSB1 221554Z 15009KT 16/09 A3009 RMK A01 T01560093  RH  066%=      5-min Rain = 0
KSB1 221555Z 16007KT 16/09 A3009 RMK A01 T01570091  RH  065%=      5-min Rain = 0
KSB1 221556Z 16008KT 16/09 A3009 RMK A01 T01580093  RH  065%=      5-min Rain = 0
KSB1 221557Z 15007KT 16/09 A3009 RMK A01 T01590093  RH  065%=      5-min Rain = 0
KSB1 221558Z 15007KT 16/09 A3009 RMK A01 T01600093  RH  065%=      5-min Rain = 0
KSB1 221559Z 14006KT 16/09 A3009 RMK A01 T01600091  RH  064%=      5-min Rain = 0
KSB1 221600Z 17007KT 16/09 A3009 RMK A01 T01590092  RH  065%=      5-min Rain = 0
KSB1 221601Z 18006KT 16/09 A3009 RMK A01 T01600094  RH  065%=      5-min Rain = 0
KSB1 221602Z 18008KT 16/09 A3009 RMK A01 T01610092  RH  064%=      5-min Rain = 0
KSB1 221603Z 16008KT 16/09 A3009 RMK A01 T01600093  RH  064%=      5-min Rain = 0
KSB1 221604Z 16007KT 16/09 A3009 RMK A01 T01610090  RH  063%=      5-min Rain = 0
KSB1 221605Z 17006KT 16/09 A3009 RMK A01 T01620092  RH  063%=      5-min Rain = 0
KSB1 221606Z 17005KT 16/09 A3009 RMK A01 T01630092  RH  063%=      5-min Rain = 0
KSB1 221607Z 18003KT 16/09 A3009 RMK A01 T01610089  RH  062%=      5-min Rain = 0
KSB1 221608Z 19003KT 16/09 A3009 RMK A01 T01590088  RH  063%=      5-min Rain = 0
KSB1 221609Z 20003KT 16/09 A3009 RMK A01 T01580089  RH  063%=      5-min Rain = 0
KSB1 221610Z 20002KT 16/09 A3009 RMK A01 T01590090  RH  063%=      5-min Rain = 0
KSB1 221611Z 18002KT 16/09 A3009 RMK A01 T01590089  RH  063%=      5-min Rain = 0
KSB1 221612Z 13002KT 16/09 A3009 RMK A01 T01590090  RH  064%=      5-min Rain = 0
KSB1 221613Z 14005KT 16/09 A3009 RMK A01 T01610094  RH  064%=      5-min Rain = 0
KSB1 221614Z 16004KT 16/09 A3009 RMK A01 T01640094  RH  063%=      5-min Rain = 0
KSB1 221615Z 17007KT 17/09 A3009 RMK A01 T01650093  RH  062%=      5-min Rain = 0
KSB1 221616Z 16006KT 17/09 A3009 RMK A01 T01660093  RH  062%=      5-min Rain = 0
KSB1 221617Z 16007KT 17/09 A3009 RMK A01 T01670093  RH  062%=      5-min Rain = 0
KSB1 221618Z 20007G12KT 17/09 A3009 RMK A01 T01670093  RH  061%=      5-min Rain = 0
KSB1 221619Z 18005KT 17/09 A3009 RMK A01 T01670093  RH  062%=      5-min Rain = 0
KSB1 221620Z 17005KT 17/09 A3009 RMK A01 T01670092  RH  061%=      5-min Rain = 0
KSB1 221621Z 16006KT 17/09 A3009 RMK A01 T01660092  RH  061%=      5-min Rain = 0
KSB1 221622Z 17004KT 16/09 A3009 RMK A01 T01640089  RH  061%=      5-min Rain = 0
KSB1 221623Z 16004KT 16/09 A3009 RMK A01 T01630090  RH  062%=      5-min Rain = 0
KSB1 221624Z 13005KT 16/09 A3009 RMK A01 T01640092  RH  062%=      5-min Rain = 0
KSB1 221625Z 12005KT 17/09 A3009 RMK A01 T01660092  RH  062%=      5-min Rain = 0
KSB1 221626Z 14005KT 17/09 A3009 RMK A01 T01670093  RH  062%=      5-min Rain = 0
KSB1 221627Z 16006KT 17/09 A3009 RMK A01 T01700094  RH  061%=      5-min Rain = 0
KSB1 221628Z 16005KT 17/09 A3009 RMK A01 T01700092  RH  060%=      5-min Rain = 0
KSB1 221629Z 15004KT 17/09 A3009 RMK A01 T01680090  RH  060%=      5-min Rain = 0
KSB1 221630Z 13003KT 17/09 A3009 RMK A01 T01680092  RH  061%=      5-min Rain = 0
KSB1 221631Z 13003KT 17/09 A3009 RMK A01 T01680094  RH  061%=      5-min Rain = 0
KSB1 221632Z 14004KT 17/09 A3009 RMK A01 T01700092  RH  060%=      5-min Rain = 0
KSB1 221633Z 16003KT 17/09 A3009 RMK A01 T01690090  RH  059%=      5-min Rain = 0
KSB1 221634Z 16004KT 17/09 A3009 RMK A01 T01680089  RH  060%=      5-min Rain = 0
KSB1 221635Z 15004KT 17/09 A3009 RMK A01 T01680089  RH  060%=      5-min Rain = 0
KSB1 221636Z 11003KT 17/09 A3009 RMK A01 T01670087  RH  059%=      5-min Rain = 0
KSB1 221637Z 13003KT 17/09 A3009 RMK A01 T01680087  RH  059%=      5-min Rain = 0
KSB1 221638Z 13003KT 17/09 A3009 RMK A01 T01680088  RH  059%=      5-min Rain = 0
KSB1 221639Z 15004KT 17/09 A3009 RMK A01 T01700086  RH  057%=      5-min Rain = 0
KSB1 221640Z 16004KT 17/09 A3009 RMK A01 T01720085  RH  057%=      5-min Rain = 0
KSB1 221641Z 19003KT 17/09 A3009 RMK A01 T01740088  RH  057%=      5-min Rain = 0
KSB1 221642Z 22003KT 17/08 A3009 RMK A01 T01740082  RH  055%=      5-min Rain = 0
KSB1 221643Z 21003KT 17/08 A3009 RMK A01 T01720080  RH  055%=      5-min Rain = 0
KSB1 221644Z 18002KT 17/08 A3009 RMK A01 T01710079  RH  055%=      5-min Rain = 0
KSB1 221645Z 17002KT 17/07 A3009 RMK A01 T01700070  RH  052%=      5-min Rain = 0
KSB1 221646Z 17003KT 17/07 A3009 RMK A01 T01700074  RH  053%=      5-min Rain = 0
KSB1 221647Z 17004KT 17/08 A3009 RMK A01 T01700078  RH  054%=      5-min Rain = 0
KSB1 221648Z 17003KT 17/08 A3009 RMK A01 T01710081  RH  056%=      5-min Rain = 0
KSB1 221649Z 20003KT 17/08 A3009 RMK A01 T01700075  RH  053%=      5-min Rain = 0
KSB1 221650Z 21002KT 17/07 A3009 RMK A01 T01700073  RH  053%=      5-min Rain = 0
KSB1 221651Z 18001KT 17/08 A3009 RMK A01 T01710077  RH  054%=      5-min Rain = 0
KSB1 221652Z 21002KT 17/08 A3009 RMK A01 T01740076  RH  053%=      5-min Rain = 0
KSB1 221653Z 21003KT 18/08 A3009 RMK A01 T01760075  RH  052%=      5-min Rain = 0
KSB1 221654Z 22005KT 18/07 A3009 RMK A01 T01760071  RH  050%=      5-min Rain = 0
KSB1 221655Z 22004KT 18/07 A3009 RMK A01 T01750068  RH  049%=      5-min Rain = 0
KSB1 221656Z 24005KT 18/07 A3009 RMK A01 T01750068  RH  049%=      5-min Rain = 0
KSB1 221657Z 23005KT 17/07 A3009 RMK A01 T01740066  RH  049%=      5-min Rain = 0
KSB1 221658Z 22005KT 17/06 A3009 RMK A01 T01740063  RH  048%=      5-min Rain = 0
KSB1 221659Z 22004KT 17/06 A3009 RMK A01 T01730059  RH  047%=      5-min Rain = 0
KSB1 221700Z 23004KT 17/06 A3009 RMK A01 T01720057  RH  047%=      5-min Rain = 0
KSB1 221701Z 24004KT 17/06 A3009 RMK A01 T01720055  RH  046%=      5-min Rain = 0
KSB1 221702Z 26002KT 17/05 A3009 RMK A01 T01740046  RH  043%=      5-min Rain = 0
KSB1 221703Z 31002KT 18/05 A3008 RMK A01 T01750046  RH  042%=      5-min Rain = 0
KSB1 221704Z 32002KT 17/05 A3008 RMK A01 T01740050  RH  044%=      5-min Rain = 0
KSB1 221705Z 33000KT 17/05 A3008 RMK A01 T01740053  RH  045%=      5-min Rain = 0
KSB1 221706Z 24000KT 18/05 A3008 RMK A01 T01760054  RH  045%=      5-min Rain = 0
KSB1 221707Z 23004KT 18/06 A3008 RMK A01 T01790057  RH  045%=      5-min Rain = 0
KSB1 221708Z 24004KT 18/05 A3008 RMK A01 T01790054  RH  044%=      5-min Rain = 0
KSB1 221709Z 22004KT 18/06 A3008 RMK A01 T01780056  RH  045%=      5-min Rain = 0
KSB1 221710Z 19003KT 18/05 A3008 RMK A01 T01770051  RH  043%=      5-min Rain = 0
KSB1 221711Z 11001KT 18/04 A3008 RMK A01 T01760042  RH  041%=      5-min Rain = 0
KSB1 221712Z 07002KT 18/05 A3008 RMK A01 T01760046  RH  042%=      5-min Rain = 0
KSB1 221713Z 06002KT 18/05 A3008 RMK A01 T01760047  RH  042%=      5-min Rain = 0
KSB1 221714Z 05002KT 18/05 A3008 RMK A01 T01760046  RH  042%=      5-min Rain = 0
KSB1 221715Z 06002KT 18/05 A3008 RMK A01 T01750050  RH  044%=      5-min Rain = 0
KSB1 221716Z 07002KT 18/05 A3008 RMK A01 T01750053  RH  044%=      5-min Rain = 0
KSB1 221717Z 10002KT 18/05 A3008 RMK A01 T01760051  RH  044%=      5-min Rain = 0
KSB1 221718Z 13002KT 18/05 A3008 RMK A01 T01770052  RH  044%=      5-min Rain = 0
KSB1 221719Z 17003KT 18/06 A3008 RMK A01 T01790055  RH  044%=      5-min Rain = 0
KSB1 221720Z 18004KT 18/05 A3009 RMK A01 T01800053  RH  043%=      5-min Rain = 0
KSB1 221721Z 20003KT 18/05 A3009 RMK A01 T01800050  RH  042%=      5-min Rain = 0
KSB1 221722Z 20002KT 18/05 A3008 RMK A01 T01790050  RH  043%=      5-min Rain = 0
KSB1 221723Z 16001KT 18/05 A3008 RMK A01 T01790051  RH  043%=      5-min Rain = 0
KSB1 221724Z 09003KT 18/06 A3008 RMK A01 T01810057  RH  044%=      5-min Rain = 0
KSB1 221725Z 09003KT 18/06 A3008 RMK A01 T01840055  RH  043%=      5-min Rain = 0
KSB1 221726Z 08003KT 18/06 A3008 RMK A01 T01840056  RH  043%=      5-min Rain = 0
KSB1 221727Z 09002KT 18/05 A3008 RMK A01 T01830054  RH  043%=      5-min Rain = 0
KSB1 221728Z 10001KT 18/05 A3008 RMK A01 T01820053  RH  042%=      5-min Rain = 0
KSB1 221729Z 16001KT 18/05 A3008 RMK A01 T01820051  RH  042%=      5-min Rain = 0
KSB1 221730Z 21002KT 18/05 A3009 RMK A01 T01820047  RH  041%=      5-min Rain = 0
KSB1 221731Z 23003KT 18/04 A3009 RMK A01 T01810044  RH  040%=      5-min Rain = 0
KSB1 221732Z 22006KT 18/05 A3009 RMK A01 T01810049  RH  042%=      5-min Rain = 0
KSB1 221733Z 19004KT 18/05 A3009 RMK A01 T01800047  RH  041%=      5-min Rain = 0
KSB1 221734Z 20006KT 18/05 A3009 RMK A01 T01820051  RH  042%=      5-min Rain = 0
KSB1 221735Z 21006KT 18/05 A3009 RMK A01 T01830050  RH  042%=      5-min Rain = 0
KSB1 221736Z 22007KT 19/05 A3009 RMK A01 T01850054  RH  042%=      5-min Rain = 0
KSB1 221737Z 20005KT 18/05 A3009 RMK A01 T01840049  RH  041%=      5-min Rain = 0
KSB1 221738Z 20004KT 18/05 A3009 RMK A01 T01810049  RH  042%=      5-min Rain = 0
KSB1 221739Z 22005KT 18/05 A3008 RMK A01 T01810052  RH  043%=      5-min Rain = 0
KSB1 221740Z 25006KT 18/06 A3008 RMK A01 T01840056  RH  043%=      5-min Rain = 0
KSB1 221741Z 24004KT 19/06 A3008 RMK A01 T01860056  RH  043%=      5-min Rain = 0
KSB1 221742Z 22005KT 19/06 A3008 RMK A01 T01860057  RH  043%=      5-min Rain = 0
KSB1 221743Z 22006KT 19/05 A3008 RMK A01 T01850054  RH  042%=      5-min Rain = 0
KSB1 221744Z 21006KT 18/05 A3008 RMK A01 T01820052  RH  042%=      5-min Rain = 0
KSB1 221745Z 21004KT 18/05 A3008 RMK A01 T01790052  RH  043%=      5-min Rain = 0
KSB1 221746Z 21003KT 18/06 A3008 RMK A01 T01790055  RH  044%=      5-min Rain = 0
KSB1 221747Z 21002KT 18/05 A3008 RMK A01 T01810054  RH  043%=      5-min Rain = 0
KSB1 221748Z 00000KT 18/05 A3008 RMK A01 T01820051  RH  042%=      5-min Rain = 0
KSB1 221749Z 07000KT 18/05 A3008 RMK A01 T01830051  RH  042%=      5-min Rain = 0
KSB1 221750Z 01001KT 18/05 A3008 RMK A01 T01840053  RH  042%=      5-min Rain = 0
KSB1 221751Z 02001KT 19/05 A3008 RMK A01 T01850053  RH  042%=      5-min Rain = 0
KSB1 221752Z 13001KT 19/05 A3008 RMK A01 T01870054  RH  042%=      5-min Rain = 0
KSB1 221753Z 06000KT 19/05 A3008 RMK A01 T01860054  RH  042%=      5-min Rain = 0
KSB1 221754Z 24001KT 19/06 A3008 RMK A01 T01880057  RH  042%=      5-min Rain = 0
KSB1 221755Z 20003KT 19/06 A3008 RMK A01 T01890056  RH  042%=      5-min Rain = 0
KSB1 221756Z 20001KT 19/06 A3008 RMK A01 T01890057  RH  042%=      5-min Rain = 0
KSB1 221757Z 24001KT 19/06 A3008 RMK A01 T01880055  RH  042%=      5-min Rain = 0
KSB1 221758Z 22001KT 19/06 A3008 RMK A01 T01870055  RH  042%=      5-min Rain = 0
KSB1 221759Z 21001KT 19/06 A3008 RMK A01 T01890058  RH  042%=      5-min Rain = 0
KSB1 221800Z 26003KT 19/05 A3008 RMK A01 T01910054  RH  041%=      5-min Rain = 0
KSB1 221801Z 29003KT 19/05 A3008 RMK A01 T01910051  RH  040%=      5-min Rain = 0
KSB1 221802Z 29002KT 19/05 A3008 RMK A01 T01900046  RH  039%=      5-min Rain = 0
KSB1 221803Z 26003KT 19/05 A3008 RMK A01 T01890047  RH  039%=      5-min Rain = 0
KSB1 221804Z 26004KT 19/05 A3008 RMK A01 T01890046  RH  039%=      5-min Rain = 0
KSB1 221805Z 26003KT 19/05 A3008 RMK A01 T01880048  RH  039%=      5-min Rain = 0
KSB1 221806Z 24002KT 19/05 A3008 RMK A01 T01890048  RH  040%=      5-min Rain = 0
KSB1 221807Z 29001KT 19/05 A3008 RMK A01 T01910048  RH  039%=      5-min Rain = 0
KSB1 221808Z 19000KT 19/05 A3008 RMK A01 T01900046  RH  039%=      5-min Rain = 0
KSB1 221809Z 30000KT 19/05 A3008 RMK A01 T01900047  RH  039%=      5-min Rain = 0
KSB1 221810Z 24001KT 19/05 A3008 RMK A01 T01910048  RH  039%=      5-min Rain = 0
KSB1 221811Z 21003KT 19/05 A3008 RMK A01 T01920051  RH  039%=      5-min Rain = 0
KSB1 221812Z 20004KT 19/05 A3008 RMK A01 T01920051  RH  039%=      5-min Rain = 0
KSB1 221813Z 16004KT 19/05 A3008 RMK A01 T01910050  RH  039%=      5-min Rain = 0
KSB1 221814Z 16002KT 19/05 A3008 RMK A01 T01910050  RH  039%=      5-min Rain = 0
KSB1 221815Z 19003KT 19/05 A3008 RMK A01 T01920049  RH  039%=      5-min Rain = 0
KSB1 221816Z 19002KT 19/05 A3007 RMK A01 T01910049  RH  039%=      5-min Rain = 0
KSB1 221817Z 26002KT 19/05 A3007 RMK A01 T01910049  RH  039%=      5-min Rain = 0
KSB1 221818Z 24002KT 19/05 A3007 RMK A01 T01920050  RH  039%=      5-min Rain = 0
KSB1 221819Z 26002KT 19/05 A3007 RMK A01 T01920051  RH  039%=      5-min Rain = 0
KSB1 221820Z 29002G8KT 19/05 A3007 RMK A01 T01920052  RH  040%=      5-min Rain = 0
KSB1 221821Z 29007KT 19/05 A3007 RMK A01 T01930052  RH  040%=      5-min Rain = 0
KSB1 221822Z 30006KT 19/05 A3007 RMK A01 T01930051  RH  039%=      5-min Rain = 0
KSB1 221823Z 31007KT 19/05 A3007 RMK A01 T01920051  RH  039%=      5-min Rain = 0
KSB1 221824Z 31007KT 19/05 A3007 RMK A01 T01910049  RH  039%=      5-min Rain = 0
KSB1 221825Z 31003KT 19/05 A3007 RMK A01 T01890048  RH  039%=      5-min Rain = 0
KSB1 221826Z 02003KT 19/05 A3007 RMK A01 T01880048  RH  040%=      5-min Rain = 0
KSB1 221827Z 01004KT 19/05 A3007 RMK A01 T01890049  RH  040%=      5-min Rain = 0
KSB1 221828Z 01004KT 19/05 A3006 RMK A01 T01900050  RH  040%=      5-min Rain = 0
KSB1 221829Z 35003KT 19/05 A3006 RMK A01 T01910048  RH  039%=      5-min Rain = 0
KSB1 221830Z 34003KT 19/05 A3006 RMK A01 T01900049  RH  039%=      5-min Rain = 0
KSB1 221831Z 35001KT 19/05 A3006 RMK A01 T01900050  RH  040%=      5-min Rain = 0
KSB1 221832Z 24002KT 19/05 A3007 RMK A01 T01910049  RH  039%=      5-min Rain = 0
KSB1 221833Z 25005KT 19/04 A3007 RMK A01 T01930041  RH  037%=      5-min Rain = 0
KSB1 221834Z 26005KT 19/03 A3007 RMK A01 T01940031  RH  034%=      5-min Rain = 0
KSB1 221835Z 24003KT 20/03 A3006 RMK A01 T01950028  RH  033%=      5-min Rain = 0
KSB1 221836Z 24004KT 20/03 A3006 RMK A01 T01950028  RH  033%=      5-min Rain = 0
KSB1 221837Z 25003KT 20/03 A3006 RMK A01 T01960030  RH  033%=      5-min Rain = 0
KSB1 221838Z 19002KT 20/03 A3006 RMK A01 T01950033  RH  034%=      5-min Rain = 0
KSB1 221839Z 14000KT 20/03 A3006 RMK A01 T01950034  RH  034%=      5-min Rain = 0
KSB1 221840Z 32001KT 20/03 A3006 RMK A01 T01980034  RH  034%=      5-min Rain = 0
KSB1 221841Z 27001KT 20/04 A3006 RMK A01 T02000035  RH  034%=      5-min Rain = 0
KSB1 221842Z 32004KT 20/03 A3006 RMK A01 T02030034  RH  033%=      5-min Rain = 0
KSB1 221843Z 30006KT 21/04 A3006 RMK A01 T02050037  RH  033%=      5-min Rain = 0
KSB1 221844Z 29006KT 20/03 A3006 RMK A01 T02040032  RH  032%=      5-min Rain = 0
KSB1 221845Z 29005KT 20/02 A3006 RMK A01 T02010020  RH  030%=      5-min Rain = 0
KSB1 221846Z 31002KT 20/02 A3006 RMK A01 T01990016  RH  029%=      5-min Rain = 0
KSB1 221847Z 00001KT 20/02 A3006 RMK A01 T01990021  RH  030%=      5-min Rain = 0
KSB1 221848Z 01001KT 20/03 A3006 RMK A01 T02020025  RH  031%=      5-min Rain = 0
KSB1 221849Z 04001KT 21/03 A3006 RMK A01 T02050026  RH  031%=      5-min Rain = 0
KSB1 221850Z 22001KT 21/03 A3006 RMK A01 T02060026  RH  030%=      5-min Rain = 0
KSB1 221851Z 22002KT 21/03 A3006 RMK A01 T02070025  RH  030%=      5-min Rain = 0
KSB1 221852Z 25002KT 21/03 A3006 RMK A01 T02090026  RH  030%=      5-min Rain = 0
KSB1 221853Z 19002KT 21/02 A3006 RMK A01 T02100024  RH  029%=      5-min Rain = 0
KSB1 221854Z 18009KT 21/02 A3006 RMK A01 T02100015  RH  027%=      5-min Rain = 0
KSB1 221855Z 18008KT 21/01 A3006 RMK A01 T02090007  RH  026%=      5-min Rain = 0
KSB1 221856Z 18009KT 21/00 A3006 RMK A01 T02070001  RH  025%=      5-min Rain = 0
KSB1 221857Z 19013KT 21/M02 A3005 RMK A01 T02061015  RH  022%=      5-min Rain = 0
KSB1 221858Z 20010KT 21/M02 A3005 RMK A01 T02061024  RH  021%=      5-min Rain = 0
KSB1 221859Z 20007KT 20/M02 A3005 RMK A01 T02041024  RH  021%=      5-min Rain = 0
KSB1 221900Z 20008KT 21/M02 A3005 RMK A01 T02051021  RH  022%=      5-min Rain = 0
KSB1 221901Z 25006KT 21/M02 A3005 RMK A01 T02071018  RH  022%=      5-min Rain = 0
KSB1 221902Z 24008KT 21/M02 A3005 RMK A01 T02091016  RH  022%=      5-min Rain = 0
KSB1 221903Z 25007KT 21/M02 A3005 RMK A01 T02111020  RH  021%=      5-min Rain = 0
KSB1 221904Z 24007KT 21/M02 A3005 RMK A01 T02101021  RH  021%=      5-min Rain = 0
KSB1 221905Z 26011KT 21/M02 A3005 RMK A01 T02101023  RH  021%=      5-min Rain = 0
KSB1 221906Z 22010KT 21/M02 A3005 RMK A01 T02111020  RH  021%=      5-min Rain = 0
KSB1 221907Z 22007KT 21/M02 A3005 RMK A01 T02111020  RH  021%=      5-min Rain = 0
KSB1 221908Z 24008KT 21/M01 A3005 RMK A01 T02131012  RH  022%=      5-min Rain = 0
KSB1 221909Z 28007KT 22/M02 A3005 RMK A01 T02151022  RH  020%=      5-min Rain = 0
KSB1 221910Z 29007KT 22/M03 A3005 RMK A01 T02151033  RH  019%=      5-min Rain = 0
KSB1 221911Z 28009KT 21/M04 A3005 RMK A01 T02131035  RH  019%=      5-min Rain = 0
KSB1 221912Z 27008KT 21/M03 A3005 RMK A01 T02111033  RH  019%=      5-min Rain = 0
KSB1 221913Z 26009KT 21/M03 A3005 RMK A01 T02101029  RH  020%=      5-min Rain = 0
KSB1 221914Z 24005KT 21/M03 A3005 RMK A01 T02111027  RH  020%=      5-min Rain = 0
KSB1 221915Z 25007G12KT 21/M03 A3005 RMK A01 T02121030  RH  020%=      5-min Rain = 0
KSB1 221916Z 25008KT 21/M02 A3005 RMK A01 T02111022  RH  021%=      5-min Rain = 0
KSB1 221917Z 27005KT 21/M02 A3005 RMK A01 T02131019  RH  021%=      5-min Rain = 0
KSB1 221918Z 28009KT 21/M02 A3004 RMK A01 T02131021  RH  021%=      5-min Rain = 0
KSB1 221919Z 26009KT 21/M02 A3004 RMK A01 T02131023  RH  020%=      5-min Rain = 0
KSB1 221920Z 27007KT 21/M03 A3004 RMK A01 T02111026  RH  020%=      5-min Rain = 0
KSB1 221921Z 26007KT 21/M03 A3004 RMK A01 T02091027  RH  020%=      5-min Rain = 0
KSB1 221922Z 26006KT 21/M02 A3004 RMK A01 T02081024  RH  021%=      5-min Rain = 0
KSB1 221923Z 23008KT 21/M02 A3004 RMK A01 T02091020  RH  021%=      5-min Rain = 0
KSB1 221924Z 26013KT 21/M02 A3004 RMK A01 T02101021  RH  021%=      5-min Rain = 0
KSB1 221925Z 27014KT 21/M03 A3004 RMK A01 T02111029  RH  020%=      5-min Rain = 0
KSB1 221926Z 27015KT 21/M03 A3004 RMK A01 T02111029  RH  020%=      5-min Rain = 0
KSB1 221927Z 26015KT 21/M03 A3004 RMK A01 T02121028  RH  020%=      5-min Rain = 0
KSB1 221928Z 25014KT 21/M02 A3004 RMK A01 T02141021  RH  021%=      5-min Rain = 0
KSB1 221929Z 23012KT 21/M03 A3004 RMK A01 T02141025  RH  020%=      5-min Rain = 0
KSB1 221930Z 23010KT 21/M03 A3004 RMK A01 T02111027  RH  020%=      5-min Rain = 0
KSB1 221931Z 24009KT 21/M03 A3004 RMK A01 T02091027  RH  020%=      5-min Rain = 0
KSB1 221932Z 24009KT 21/M02 A3004 RMK A01 T02081022  RH  021%=      5-min Rain = 0
KSB1 221933Z 23012KT 21/M02 A3004 RMK A01 T02101021  RH  021%=      5-min Rain = 0
KSB1 221934Z 22010KT 21/M02 A3003 RMK A01 T02081022  RH  021%=      5-min Rain = 0
KSB1 221935Z 21010KT 21/M02 A3003 RMK A01 T02081018  RH  022%=      5-min Rain = 0
KSB1 221936Z 23011KT 21/M02 A3003 RMK A01 T02081020  RH  022%=      5-min Rain = 0
KSB1 221937Z 23014KT 21/M02 A3003 RMK A01 T02071019  RH  022%=      5-min Rain = 0
KSB1 221938Z 22014KT 21/M02 A3003 RMK A01 T02071023  RH  021%=      5-min Rain = 0
KSB1 221939Z 22012KT 21/M02 A3003 RMK A01 T02051024  RH  021%=      5-min Rain = 0
KSB1 221940Z 26011KT 20/M02 A3003 RMK A01 T02041023  RH  022%=      5-min Rain = 0
KSB1 221941Z 26006KT 20/M02 A3003 RMK A01 T02031023  RH  022%=      5-min Rain = 0
KSB1 221942Z 26006KT 20/M02 A3003 RMK A01 T02021023  RH  022%=      5-min Rain = 0
KSB1 221943Z 27003KT 20/M02 A3003 RMK A01 T02021022  RH  022%=      5-min Rain = 0
KSB1 221944Z 23006KT 20/M02 A3003 RMK A01 T02031020  RH  022%=      5-min Rain = 0
KSB1 221945Z 21007KT 21/M02 A3003 RMK A01 T02051019  RH  022%=      5-min Rain = 0
KSB1 221946Z 20009KT 21/M02 A3003 RMK A01 T02061019  RH  022%=      5-min Rain = 0
KSB1 221947Z 21008KT 21/M02 A3003 RMK A01 T02061019  RH  022%=      5-min Rain = 0
KSB1 221948Z 21007KT 20/M02 A3003 RMK A01 T02041022  RH  022%=      5-min Rain = 0
KSB1 221949Z 22008KT 20/M02 A3002 RMK A01 T02041020  RH  022%=      5-min Rain = 0
KSB1 221950Z 21008KT 20/M02 A3002 RMK A01 T02041022  RH  022%=      5-min Rain = 0
KSB1 221951Z 19010G15KT 21/M02 A3002 RMK A01 T02051021  RH  022%=      5-min Rain = 0
KSB1 221952Z 21014KT 21/M02 A3002 RMK A01 T02071020  RH  022%=      5-min Rain = 0
KSB1 221953Z 22012KT 21/M02 A3002 RMK A01 T02091018  RH  022%=      5-min Rain = 0
KSB1 221954Z 23009KT 21/M02 A3002 RMK A01 T02081019  RH  022%=      5-min Rain = 0
KSB1 221955Z 22012KT 21/M02 A3002 RMK A01 T02081021  RH  021%=      5-min Rain = 0
KSB1 221956Z 21012KT 21/M02 A3002 RMK A01 T02071023  RH  021%=      5-min Rain = 0
KSB1 221957Z 21011KT 21/M02 A3002 RMK A01 T02071021  RH  022%=      5-min Rain = 0
KSB1 221958Z 21011KT 21/M02 A3002 RMK A01 T02091019  RH  022%=      5-min Rain = 0
KSB1 221959Z 21009KT 21/M02 A3002 RMK A01 T02081020  RH  021%=      5-min Rain = 0
KSB1 222000Z 21011KT 21/M02 A3002 RMK A01 T02071019  RH  022%=      5-min Rain = 0
KSB1 222001Z 21012G24KT 21/M02 A3002 RMK A01 T02051018  RH  022%=      5-min Rain = 0
KSB1 222002Z 25014G22KT 21/M02 A3002 RMK A01 T02061016  RH  022%=      5-min Rain = 0
KSB1 222003Z 23013KT 21/M02 A3002 RMK A01 T02071017  RH  022%=      5-min Rain = 0
KSB1 222004Z 22012KT 20/M02 A3002 RMK A01 T02041018  RH  022%=      5-min Rain = 0
KSB1 222005Z 22009KT 20/M02 A3002 RMK A01 T02031017  RH  023%=      5-min Rain = 0
KSB1 222006Z 23011KT 20/M02 A3002 RMK A01 T02021018  RH  023%=      5-min Rain = 0
KSB1 222007Z 23008KT 20/M02 A3002 RMK A01 T02011016  RH  023%=      5-min Rain = 0
KSB1 222008Z 24010KT 20/M01 A3002 RMK A01 T02011014  RH  024%=      5-min Rain = 0
KSB1 222009Z 23006KT 20/M01 A3002 RMK A01 T02031013  RH  023%=      5-min Rain = 0
KSB1 222010Z 24003KT 20/M02 A3002 RMK A01 T02041015  RH  023%=      5-min Rain = 0
KSB1 222011Z 24005KT 20/M02 A3002 RMK A01 T02031016  RH  023%=      5-min Rain = 0
KSB1 222012Z 26006KT 20/M02 A3002 RMK A01 T02021016  RH  023%=      5-min Rain = 0
KSB1 222013Z 23006KT 20/M01 A3002 RMK A01 T02021013  RH  024%=      5-min Rain = 0
KSB1 222014Z 22006G11KT 20/M02 A3001 RMK A01 T02031015  RH  023%=      5-min Rain = 0
KSB1 222015Z 25012KT 20/M01 A3001 RMK A01 T02031014  RH  023%=      5-min Rain = 0
KSB1 222016Z 30010KT 21/M02 A3001 RMK A01 T02051017  RH  022%=      5-min Rain = 0
KSB1 222017Z 29010KT 20/M02 A3001 RMK A01 T02041020  RH  022%=      5-min Rain = 0
KSB1 222018Z 28008KT 20/M02 A3001 RMK A01 T02031020  RH  022%=      5-min Rain = 0
KSB1 222019Z 30009KT 20/M02 A3001 RMK A01 T02031021  RH  022%=      5-min Rain = 0
KSB1 222020Z 30011KT 21/M02 A3001 RMK A01 T02051022  RH  022%=      5-min Rain = 0
KSB1 222021Z 29013KT 21/M02 A3001 RMK A01 T02051023  RH  022%=      5-min Rain = 0
KSB1 222022Z 29012KT 20/M02 A3001 RMK A01 T02041023  RH  022%=      5-min Rain = 0
KSB1 222023Z 29008KT 20/M02 A3001 RMK A01 T02031021  RH  022%=      5-min Rain = 0
KSB1 222024Z 31008KT 20/M02 A3001 RMK A01 T02031020  RH  022%=      5-min Rain = 0
KSB1 222025Z 31008KT 20/M02 A3001 RMK A01 T02041021  RH  022%=      5-min Rain = 0
KSB1 222026Z 30009KT 20/M02 A3001 RMK A01 T02041021  RH  022%=      5-min Rain = 0
KSB1 222027Z 29011KT 21/M02 A3001 RMK A01 T02051021  RH  022%=      5-min Rain = 0
KSB1 222028Z 29010KT 20/M02 A3001 RMK A01 T02031024  RH  022%=      5-min Rain = 0
KSB1 222029Z 29008KT 20/M03 A3001 RMK A01 T02021026  RH  021%=      5-min Rain = 0
KSB1 222030Z 29007KT 20/M03 A3001 RMK A01 T02011028  RH  021%=      5-min Rain = 0
KSB1 222031Z 29006KT 20/M03 A3001 RMK A01 T02011028  RH  021%=      5-min Rain = 0
KSB1 222032Z 28008KT 20/M03 A3001 RMK A01 T02021028  RH  021%=      5-min Rain = 0
KSB1 222033Z 25005KT 20/M03 A3001 RMK A01 T02021033  RH  020%=      5-min Rain = 0
KSB1 222034Z 25009G15KT 20/M03 A3001 RMK A01 T02021033  RH  020%=      5-min Rain = 0
KSB1 222035Z 25009KT 20/M03 A3001 RMK A01 T02031030  RH  021%=      5-min Rain = 0
KSB1 222036Z 28005KT 20/M03 A3001 RMK A01 T02031030  RH  021%=      5-min Rain = 0
KSB1 222037Z 30008KT 20/M03 A3001 RMK A01 T02041032  RH  020%=      5-min Rain = 0
KSB1 222038Z 29011KT 21/M03 A3001 RMK A01 T02051034  RH  020%=      5-min Rain = 0
KSB1 222039Z 28008KT 21/M04 A3001 RMK A01 T02051038  RH  019%=      5-min Rain = 0
KSB1 222040Z 29011KT 21/M04 A3001 RMK A01 T02051037  RH  019%=      5-min Rain = 0
KSB1 222041Z 27009KT 20/M04 A3001 RMK A01 T02041040  RH  019%=      5-min Rain = 0
KSB1 222042Z 27006KT 20/M04 A3001 RMK A01 T02031040  RH  019%=      5-min Rain = 0
KSB1 222043Z 27006KT 20/M04 A3001 RMK A01 T02021038  RH  020%=      5-min Rain = 0
KSB1 222044Z 27007KT 20/M04 A3001 RMK A01 T02031038  RH  019%=      5-min Rain = 0
KSB1 222045Z 28009KT 20/M04 A3001 RMK A01 T02031038  RH  019%=      5-min Rain = 0
KSB1 222046Z 27009KT 20/M04 A3001 RMK A01 T02041038  RH  019%=      5-min Rain = 0
KSB1 222047Z 29010KT 21/M04 A30 RMK A01 T02061039  RH  019%=      5-min Rain = 0
KSB1 222048Z 30012KT 21/M04 A3001 RMK A01 T02081037  RH  019%=      5-min Rain = 0
KSB1 222049Z 27009KT 21/M04 A3001 RMK A01 T02091040  RH  018%=      5-min Rain = 0
KSB1 222050Z 26010KT 21/M04 A3001 RMK A01 T02081042  RH  018%=      5-min Rain = 0
KSB1 222051Z 27009KT 21/M05 A3001 RMK A01 T02071045  RH  018%=      5-min Rain = 0
KSB1 222052Z 27011KT 21/M04 A3001 RMK A01 T02051044  RH  018%=      5-min Rain = 0
KSB1 222053Z 26011KT 20/M05 A3001 RMK A01 T02041047  RH  018%=      5-min Rain = 0
KSB1 222054Z 28009KT 20/M05 A3001 RMK A01 T02031051  RH  018%=      5-min Rain = 0
KSB1 222055Z 29008KT 20/M05 A3001 RMK A01 T02021049  RH  018%=      5-min Rain = 0
KSB1 222056Z 28008KT 20/M05 A3001 RMK A01 T02021051  RH  018%=      5-min Rain = 0
KSB1 222057Z 29012KT 20/M05 A3001 RMK A01 T02011049  RH  018%=      5-min Rain = 0
KSB1 222058Z 29013KT 20/M05 A3001 RMK A01 T02031049  RH  018%=      5-min Rain = 0
KSB1 222059Z 29009KT 20/M05 A3001 RMK A01 T02011052  RH  018%=      5-min Rain = 0
KSB1 222100Z 30009KT 20/M05 A3001 RMK A01 T01991050  RH  018%=      5-min Rain = 0
KSB1 222101Z 29010KT 20/M05 A3001 RMK A01 T01991050  RH  018%=      5-min Rain = 0
KSB1 222102Z 28007KT 20/M05 A30 RMK A01 T01991050  RH  018%=      5-min Rain = 0
KSB1 222103Z 29009KT 20/M05 A30 RMK A01 T02011047  RH  018%=      5-min Rain = 0
KSB1 222104Z 29011KT 20/M05 A30 RMK A01 T02031046  RH  018%=      5-min Rain = 0
KSB1 222105Z 30009KT 20/M05 A30 RMK A01 T02041048  RH  018%=      5-min Rain = 0
KSB1 222106Z 29009KT 21/M05 A3001 RMK A01 T02051047  RH  018%=      5-min Rain = 0
KSB1 222107Z 29010KT 21/M05 A3001 RMK A01 T02051047  RH  018%=      5-min Rain = 0
KSB1 222108Z 28008KT 21/M05 A3001 RMK A01 T02061046  RH  018%=      5-min Rain = 0
KSB1 222109Z 28011KT 21/M05 A3001 RMK A01 T02061046  RH  018%=      5-min Rain = 0
KSB1 222110Z 28010KT 21/M05 A3001 RMK A01 T02051047  RH  018%=      5-min Rain = 0
KSB1 222111Z 28011KT 21/M05 A3001 RMK A01 T02051045  RH  018%=      5-min Rain = 0
KSB1 222112Z 29011KT 20/M05 A3001 RMK A01 T02041048  RH  018%=      5-min Rain = 0
KSB1 222113Z 29009KT 20/M05 A3001 RMK A01 T02031048  RH  018%=      5-min Rain = 0
KSB1 222114Z 30008KT 20/M05 A3001 RMK A01 T02021048  RH  018%=      5-min Rain = 0
KSB1 222115Z 30008KT 20/M05 A3001 RMK A01 T02031047  RH  018%=      5-min Rain = 0
KSB1 222116Z 28010KT 20/M05 A3001 RMK A01 T02041047  RH  018%=      5-min Rain = 0
KSB1 222117Z 29010KT 20/M05 A3001 RMK A01 T02031048  RH  018%=      5-min Rain = 0
KSB1 222118Z 29010KT 20/M05 A3001 RMK A01 T02021048  RH  018%=      5-min Rain = 0
KSB1 222119Z 29007KT 20/M05 A3001 RMK A01 T02031047  RH  018%=      5-min Rain = 0
KSB1 222120Z 28008KT 20/M05 A3001 RMK A01 T02031048  RH  018%=      5-min Rain = 0
KSB1 222121Z 27009KT 20/M05 A3001 RMK A01 T02021049  RH  018%=      5-min Rain = 0
KSB1 222122Z 29009G15KT 20/M05 A30 RMK A01 T02011048  RH  018%=      5-min Rain = 0
KSB1 222123Z 31010KT 20/M05 A30 RMK A01 T02021047  RH  018%=      5-min Rain = 0
KSB1 222124Z 31009KT 20/M05 A30 RMK A01 T02021049  RH  018%=      5-min Rain = 0
KSB1 222125Z 31009KT 20/M05 A30 RMK A01 T02021049  RH  018%=      5-min Rain = 0
KSB1 222126Z 29012KT 20/M05 A30 RMK A01 T02021051  RH  018%=      5-min Rain = 0
KSB1 222127Z 28010KT 20/M05 A30 RMK A01 T02011054  RH  017%=      5-min Rain = 0
KSB1 222128Z 29007KT 20/M05 A30 RMK A01 T02001054  RH  018%=      5-min Rain = 0
KSB1 222129Z 32005KT 20/M05 A30 RMK A01 T01991053  RH  018%=      5-min Rain = 0
KSB1 222130Z 32008KT 20/M05 A30 RMK A01 T01991050  RH  018%=      5-min Rain = 0
KSB1 222131Z 31008KT 20/M05 A30 RMK A01 T02001048  RH  018%=      5-min Rain = 0
KSB1 222132Z 30008KT 20/M05 A30 RMK A01 T02021047  RH  018%=      5-min Rain = 0
KSB1 222133Z 31008KT 20/M05 A30 RMK A01 T02021050  RH  018%=      5-min Rain = 0
KSB1 222134Z 30008KT 20/M05 A30 RMK A01 T02031052  RH  017%=      5-min Rain = 0
KSB1 222135Z 28007KT 20/M05 A30 RMK A01 T02031053  RH  017%=      5-min Rain = 0
KSB1 222136Z 27005KT 20/M06 A30 RMK A01 T02021056  RH  017%=      5-min Rain = 0
KSB1 222137Z 30005KT 20/M06 A30 RMK A01 T02011055  RH  017%=      5-min Rain = 0
KSB1 222138Z 32006KT 20/M05 A30 RMK A01 T02011052  RH  018%=      5-min Rain = 0
KSB1 222139Z 31005KT 20/M05 A30 RMK A01 T02021053  RH  017%=      5-min Rain = 0
KSB1 222140Z 31003KT 20/M06 A30 RMK A01 T02011056  RH  017%=      5-min Rain = 0
KSB1 222141Z 31005KT 20/M06 A30 RMK A01 T02011056  RH  017%=      5-min Rain = 0
KSB1 222142Z 32007KT 20/M06 A30 RMK A01 T02001056  RH  017%=      5-min Rain = 0
KSB1 222143Z 31010KT 20/M06 A30 RMK A01 T02001055  RH  017%=      5-min Rain = 0
KSB1 222144Z 30008KT 20/M06 A30 RMK A01 T02001059  RH  017%=      5-min Rain = 0
KSB1 222145Z 30010KT 20/M06 A30 RMK A01 T01991057  RH  017%=      5-min Rain = 0
KSB1 222146Z 31009KT 20/M06 A30 RMK A01 T01991059  RH  017%=      5-min Rain = 0
KSB1 222147Z 31011KT 20/M06 A30 RMK A01 T01991059  RH  017%=      5-min Rain = 0
KSB1 222148Z 30009KT 20/M06 A30 RMK A01 T01981061  RH  017%=      5-min Rain = 0
KSB1 222149Z 29005KT 20/M06 A30 RMK A01 T01981061  RH  017%=      5-min Rain = 0
KSB1 222150Z 31004KT 20/M06 A30 RMK A01 T01981060  RH  017%=      5-min Rain = 0
KSB1 222151Z 30006KT 20/M06 A30 RMK A01 T01981058  RH  017%=      5-min Rain = 0
KSB1 222152Z 32005KT 20/M06 A30 RMK A01 T01991058  RH  017%=      5-min Rain = 0
KSB1 222153Z 31007KT 20/M06 A30 RMK A01 T02001058  RH  017%=      5-min Rain = 0
KSB1 222154Z 28009KT 20/M06 A30 RMK A01 T02001060  RH  017%=      5-min Rain = 0
KSB1 222155Z 29007KT 20/M06 A30 RMK A01 T02001064  RH  016%=      5-min Rain = 0
KSB1 222156Z 29007KT 20/M06 A30 RMK A01 T02001061  RH  017%=      5-min Rain = 0
KSB1 222157Z 28006KT 20/M07 A30 RMK A01 T02001065  RH  016%=      5-min Rain = 0
KSB1 222158Z 29006KT 20/M07 A2999 RMK A01 T01991065  RH  016%=      5-min Rain = 0
KSB1 222159Z 31007KT 20/M06 A2999 RMK A01 T01991064  RH  016%=      5-min Rain = 0
KSB1 222200Z 31008KT 20/M07 A2999 RMK A01 T01991065  RH  016%=      5-min Rain = 0
KSB1 222201Z 31009KT 20/M07 A2999 RMK A01 T01991065  RH  016%=      5-min Rain = 0
KSB1 222202Z 30008KT 20/M07 A2999 RMK A01 T01991065  RH  016%=      5-min Rain = 0
KSB1 222203Z 29007KT 20/M06 A2999 RMK A01 T01991064  RH  016%=      5-min Rain = 0
KSB1 222204Z 28007KT 20/M07 A2999 RMK A01 T01991065  RH  016%=      5-min Rain = 0
KSB1 222205Z 29009KT 20/M07 A2999 RMK A01 T01991067  RH  016%=      5-min Rain = 0
KSB1 222206Z 30005KT 20/M07 A2999 RMK A01 T01991066  RH  016%=      5-min Rain = 0
KSB1 222207Z 28008KT 20/M06 A2999 RMK A01 T01991064  RH  016%=      5-min Rain = 0
KSB1 222208Z 28010KT 20/M06 A2999 RMK A01 T02001064  RH  016%=      5-min Rain = 0
KSB1 222209Z 29011KT 20/M07 A2999 RMK A01 T02011068  RH  016%=      5-min Rain = 0
KSB1 222210Z 29009KT 20/M07 A2999 RMK A01 T02001068  RH  016%=      5-min Rain = 0
KSB1 222211Z 29008KT 20/M07 A2999 RMK A01 T02001069  RH  016%=      5-min Rain = 0
KSB1 222212Z 29008KT 20/M07 A2999 RMK A01 T01991069  RH  016%=      5-min Rain = 0
KSB1 222213Z 28007KT 20/M07 A2999 RMK A01 T01981070  RH  016%=      5-min Rain = 0
KSB1 222214Z 28008KT 20/M07 A2999 RMK A01 T01981068  RH  016%=      5-min Rain = 0
KSB1 222215Z 29006KT 20/M07 A2999 RMK A01 T01981066  RH  016%=      5-min Rain = 0
KSB1 222216Z 28006KT 20/M07 A2999 RMK A01 T01981065  RH  016%=      5-min Rain = 0
KSB1 222217Z 28007KT 20/M07 A2999 RMK A01 T01991066  RH  016%=      5-min Rain = 0
KSB1 222218Z 29007KT 20/M07 A2999 RMK A01 T01981065  RH  016%=      5-min Rain = 0
KSB1 222219Z 31006KT 20/M07 A2999 RMK A01 T01981065  RH  016%=      5-min Rain = 0
KSB1 222220Z 30005KT 20/M07 A2999 RMK A01 T01981065  RH  016%=      5-min Rain = 0
KSB1 222221Z 29003KT 20/M06 A2999 RMK A01 T01991062  RH  017%=      5-min Rain = 0
KSB1 222222Z 28006KT 20/M06 A2999 RMK A01 T01991063  RH  016%=      5-min Rain = 0
KSB1 222223Z 29006KT 20/M06 A2999 RMK A01 T01991062  RH  017%=      5-min Rain = 0
KSB1 222224Z 30006KT 20/M06 A2999 RMK A01 T02001059  RH  017%=      5-min Rain = 0
KSB1 222225Z 30010KT 20/M06 A2999 RMK A01 T02011062  RH  016%=      5-min Rain = 0
KSB1 222226Z 30010KT 20/M07 A2999 RMK A01 T02011067  RH  016%=      5-min Rain = 0
KSB1 222227Z 30007KT 20/M07 A2999 RMK A01 T01991068  RH  016%=      5-min Rain = 0
KSB1 222228Z 29006KT 20/M07 A2999 RMK A01 T01981066  RH  016%=      5-min Rain = 0
KSB1 222229Z 28008KT 20/M07 A2999 RMK A01 T01991065  RH  016%=      5-min Rain = 0
KSB1 222230Z 29008KT 20/M07 A2999 RMK A01 T02001065  RH  016%=      5-min Rain = 0
KSB1 222231Z 32006KT 20/M06 A2999 RMK A01 T01991063  RH  016%=      5-min Rain = 0
KSB1 222232Z 32007KT 20/M07 A2999 RMK A01 T02001066  RH  016%=      5-min Rain = 0
KSB1 222233Z 31006G12KT 20/M07 A2999 RMK A01 T02001066  RH  016%=      5-min Rain = 0
KSB1 222234Z 31008G13KT 20/M07 A2999 RMK A01 T02001067  RH  016%=      5-min Rain = 0
KSB1 222235Z 30007KT 20/M07 A2999 RMK A01 T01991069  RH  016%=      5-min Rain = 0
KSB1 222236Z 29007KT 20/M07 A2999 RMK A01 T01991068  RH  016%=      5-min Rain = 0
KSB1 222237Z 31008KT 20/M07 A2999 RMK A01 T01991067  RH  016%=      5-min Rain = 0
KSB1 222238Z 30008KT 20/M07 A2999 RMK A01 T01991068  RH  016%=      5-min Rain = 0
KSB1 222239Z 29006KT 20/M07 A2999 RMK A01 T02001067  RH  016%=      5-min Rain = 0
KSB1 222240Z 29008KT 20/M07 A2999 RMK A01 T01991065  RH  016%=      5-min Rain = 0
KSB1 222241Z 28011KT 20/M07 A2999 RMK A01 T02011065  RH  016%=      5-min Rain = 0
KSB1 222242Z 29011KT 20/M07 A2999 RMK A01 T02011071  RH  015%=      5-min Rain = 0
KSB1 222243Z 29009KT 20/M07 A2999 RMK A01 T01991072  RH  015%=      5-min Rain = 0
KSB1 222244Z 27008KT 20/M07 A2999 RMK A01 T01981069  RH  016%=      5-min Rain = 0
KSB1 222245Z 28011KT 20/M07 A2999 RMK A01 T01991069  RH  016%=      5-min Rain = 0
KSB1 222246Z 31010KT 20/M07 A2999 RMK A01 T01991069  RH  016%=      5-min Rain = 0
KSB1 222247Z 32010KT 20/M07 A2999 RMK A01 T01991070  RH  016%=      5-min Rain = 0
KSB1 222248Z 31010KT 20/M07 A2999 RMK A01 T01991069  RH  016%=      5-min Rain = 0
KSB1 222249Z 30011KT 20/M07 A2999 RMK A01 T01991071  RH  015%=      5-min Rain = 0
KSB1 222250Z 30008KT 20/M07 A2999 RMK A01 T01981072  RH  015%=      5-min Rain = 0
KSB1 222251Z 30006KT 20/M07 A2999 RMK A01 T01981071  RH  016%=      5-min Rain = 0
KSB1 222252Z 30006KT 20/M07 A2999 RMK A01 T01981070  RH  016%=      5-min Rain = 0
KSB1 222253Z 31007KT 20/M07 A2999 RMK A01 T01991069  RH  016%=      5-min Rain = 0
KSB1 222254Z 31008KT 20/M07 A2999 RMK A01 T01981072  RH  015%=      5-min Rain = 0
KSB1 222255Z 30006KT 20/M07 A2999 RMK A01 T01981071  RH  016%=      5-min Rain = 0
KSB1 222256Z 28007KT 20/M07 A2999 RMK A01 T01981071  RH  016%=      5-min Rain = 0
KSB1 222257Z 30007KT 20/M07 A2999 RMK A01 T01981070  RH  016%=      5-min Rain = 0
KSB1 222258Z 29008KT 20/M07 A2999 RMK A01 T01981072  RH  015%=      5-min Rain = 0
KSB1 222259Z 31008KT 20/M07 A2998 RMK A01 T01981070  RH  016%=      5-min Rain = 0
KSB1 222300Z 30008KT 20/M07 A2998 RMK A01 T01981070  RH  016%=      5-min Rain = 0
KSB1 222301Z 31008KT 20/M07 A2999 RMK A01 T01981071  RH  015%=      5-min Rain = 0
KSB1 222302Z 28012KT 20/M07 A2999 RMK A01 T01981072  RH  015%=      5-min Rain = 0
KSB1 222303Z 30010KT 20/M07 A2999 RMK A01 T01981072  RH  015%=      5-min Rain = 0
KSB1 222304Z 29011KT 20/M07 A2999 RMK A01 T01981073  RH  015%=      5-min Rain = 0
KSB1 222305Z 28011KT 20/M07 A2999 RMK A01 T01971073  RH  015%=      5-min Rain = 0
KSB1 222306Z 29008KT 20/M07 A2999 RMK A01 T01971072  RH  016%=      5-min Rain = 0
KSB1 222307Z 29008KT 20/M07 A2999 RMK A01 T01971071  RH  016%=      5-min Rain = 0
KSB1 222308Z 28009KT 20/M07 A2999 RMK A01 T01971072  RH  016%=      5-min Rain = 0
KSB1 222309Z 30010KT 20/M07 A2999 RMK A01 T01971072  RH  016%=      5-min Rain = 0
KSB1 222310Z 28008KT 20/M07 A2999 RMK A01 T01971073  RH  015%=      5-min Rain = 0
KSB1 222311Z 30009KT 20/M07 A2999 RMK A01 T01971073  RH  015%=      5-min Rain = 0
KSB1 222312Z 30007KT 20/M07 A2999 RMK A01 T01971072  RH  016%=      5-min Rain = 0
KSB1 222313Z 30007KT 20/M07 A2999 RMK A01 T01961073  RH  015%=      5-min Rain = 0
KSB1 222314Z 31005KT 20/M07 A2999 RMK A01 T01961073  RH  015%=      5-min Rain = 0
KSB1 222315Z 30008KT 20/M07 A2999 RMK A01 T01961072  RH  016%=      5-min Rain = 0
KSB1 222316Z 29010KT 20/M07 A2999 RMK A01 T01961072  RH  016%=      5-min Rain = 0
KSB1 222317Z 28010KT 20/M07 A2999 RMK A01 T01961073  RH  015%=      5-min Rain = 0
KSB1 222318Z 31006KT 20/M07 A2999 RMK A01 T01961073  RH  016%=      5-min Rain = 0
KSB1 222319Z 31005KT 20/M07 A2999 RMK A01 T01961068  RH  016%=      5-min Rain = 0
KSB1 222320Z 30010KT 20/M07 A2999 RMK A01 T01971068  RH  016%=      5-min Rain = 0
KSB1 222321Z 31008KT 20/M07 A2999 RMK A01 T01971074  RH  015%=      5-min Rain = 0
KSB1 222322Z 30009KT 20/M07 A2999 RMK A01 T01971073  RH  015%=      5-min Rain = 0
KSB1 222323Z 29010KT 20/M07 A2999 RMK A01 T01971074  RH  015%=      5-min Rain = 0
KSB1 222324Z 30008KT 20/M07 A2999 RMK A01 T01961074  RH  015%=      5-min Rain = 0
KSB1 222325Z 30006KT 20/M07 A2999 RMK A01 T01961073  RH  016%=      5-min Rain = 0
KSB1 222326Z 30007KT 20/M07 A2998 RMK A01 T01961073  RH  016%=      5-min Rain = 0
KSB1 222327Z 30007KT 20/M07 A2998 RMK A01 T01961073  RH  016%=      5-min Rain = 0
KSB1 222328Z 29010KT 20/M07 A2998 RMK A01 T01961073  RH  016%=      5-min Rain = 0
KSB1 222329Z 28011KT 20/M08 A2999 RMK A01 T01961076  RH  015%=      5-min Rain = 0
KSB1 222330Z 28009KT 20/M08 A2998 RMK A01 T01961075  RH  015%=      5-min Rain = 0
KSB1 222331Z 29007KT 20/M07 A2998 RMK A01 T01951073  RH  016%=      5-min Rain = 0
KSB1 222332Z 29007KT 20/M07 A2998 RMK A01 T01951073  RH  016%=      5-min Rain = 0
KSB1 222333Z 30008G14KT 20/M07 A2998 RMK A01 T01961074  RH  015%=      5-min Rain = 0
KSB1 222334Z 29011KT 20/M08 A2998 RMK A01 T01961076  RH  015%=      5-min Rain = 0
KSB1 222335Z 29010KT 20/M08 A2998 RMK A01 T01961077  RH  015%=      5-min Rain = 0
KSB1 222336Z 30009KT 20/M08 A2998 RMK A01 T01951075  RH  015%=      5-min Rain = 0
KSB1 222337Z 29010KT 20/M08 A2998 RMK A01 T01951075  RH  015%=      5-min Rain = 0
KSB1 222338Z 29009KT 20/M08 A2998 RMK A01 T01961076  RH  015%=      5-min Rain = 0
KSB1 222339Z 29007KT 20/M08 A2998 RMK A01 T01961076  RH  015%=      5-min Rain = 0
KSB1 222340Z 30009KT 20/M07 A2998 RMK A01 T01961074  RH  015%=      5-min Rain = 0
KSB1 222341Z 29010KT 20/M08 A2998 RMK A01 T01951075  RH  015%=      5-min Rain = 0
KSB1 222342Z 30009KT 20/M07 A2998 RMK A01 T01951074  RH  015%=      5-min Rain = 0
KSB1 222343Z 31009KT 20/M08 A2998 RMK A01 T01951076  RH  015%=      5-min Rain = 0
KSB1 222344Z 31010KT 20/M08 A2998 RMK A01 T01951075  RH  015%=      5-min Rain = 0
KSB1 222345Z 32010KT 20/M07 A2998 RMK A01 T01951074  RH  015%=      5-min Rain = 0
KSB1 222346Z 31010KT 20/M08 A2998 RMK A01 T01951075  RH  015%=      5-min Rain = 0
KSB1 222347Z 30010KT 20/M07 A2998 RMK A01 T01951074  RH  015%=      5-min Rain = 0
KSB1 222348Z 31011KT 20/M08 A2998 RMK A01 T01951075  RH  015%=      5-min Rain = 0
KSB1 222349Z 31011KT 20/M07 A2998 RMK A01 T01951073  RH  016%=      5-min Rain = 0
KSB1 222350Z 31013KT 20/M08 A2998 RMK A01 T01951075  RH  015%=      5-min Rain = 0
KSB1 222351Z 31012KT 19/M08 A2998 RMK A01 T01941076  RH  015%=      5-min Rain = 0
KSB1 222352Z 30013KT 19/M08 A2998 RMK A01 T01941075  RH  015%=      5-min Rain = 0
KSB1 222353Z 30011KT 19/M08 A2998 RMK A01 T01941076  RH  015%=      5-min Rain = 0
KSB1 222354Z 31010KT 19/M08 A2998 RMK A01 T01941075  RH  015%=      5-min Rain = 0
KSB1 222355Z 31011KT 19/M08 A2998 RMK A01 T01941075  RH  015%=      5-min Rain = 0
KSB1 222356Z 31012KT 19/M08 A2998 RMK A01 T01941075  RH  015%=      5-min Rain = 0
KSB1 222357Z 30010KT 19/M08 A2998 RMK A01 T01931075  RH  016%=      5-min Rain = 0
KSB1 222358Z 30011KT 19/M07 A2998 RMK A01 T01931074  RH  016%=      5-min Rain = 0
KSB1 222359Z 30009KT 19/M08 A2998 RMK A01 T01931076  RH  015%=      5-min Rain = 0
KSB1 230000Z 30011KT 19/M07 A2998 RMK A01 T01931074  RH  016%=      5-min Rain = 0
KSB1 230001Z 31011G17KT 19/M08 A2998 RMK A01 T01931075  RH  016%=      5-min Rain = 0
KSB1 230002Z 31013KT 19/M08 A2998 RMK A01 T01931075  RH  016%=      5-min Rain = 0
KSB1 230003Z 31011KT 19/M08 A2998 RMK A01 T01931075  RH  016%=      5-min Rain = 0
KSB1 230004Z 31014KT 19/M08 A2998 RMK A01 T01921076  RH  016%=      5-min Rain = 0
KSB1 230005Z 31013KT 19/M08 A2998 RMK A01 T01921076  RH  016%=      5-min Rain = 0
KSB1 230006Z 30012KT 19/M08 A2998 RMK A01 T01921076  RH  016%=      5-min Rain = 0
KSB1 230007Z 30013KT 19/M08 A2998 RMK A01 T01921076  RH  016%=      5-min Rain = 0
KSB1 230008Z 30014KT 19/M08 A2998 RMK A01 T01911076  RH  016%=      5-min Rain = 0
KSB1 230009Z 30012KT 19/M08 A2998 RMK A01 T01911077  RH  016%=      5-min Rain = 0
KSB1 230010Z 29011KT 19/M08 A2999 RMK A01 T01911076  RH  016%=      5-min Rain = 0
KSB1 230011Z 30012KT 19/M08 A2999 RMK A01 T01911075  RH  016%=      5-min Rain = 0
KSB1 230012Z 30011KT 19/M08 A2999 RMK A01 T01911076  RH  016%=      5-min Rain = 0
KSB1 230013Z 31009KT 19/M07 A2999 RMK A01 T01911074  RH  016%=      5-min Rain = 0
KSB1 230014Z 30010KT 19/M08 A2999 RMK A01 T01911076  RH  016%=      5-min Rain = 0
KSB1 230015Z 31012KT 19/M08 A2999 RMK A01 T01901075  RH  016%=      5-min Rain = 0
KSB1 230016Z 30012KT 19/M08 A2999 RMK A01 T01901076  RH  016%=      5-min Rain = 0
KSB1 230017Z 30010KT 19/M08 A2999 RMK A01 T01911075  RH  016%=      5-min Rain = 0
KSB1 230018Z 30011KT 19/M08 A2999 RMK A01 T01911075  RH  016%=      5-min Rain = 0
KSB1 230019Z 31009KT 19/M07 A2999 RMK A01 T01901073  RH  016%=      5-min Rain = 0
KSB1 230020Z 31010KT 19/M07 A2999 RMK A01 T01901073  RH  016%=      5-min Rain = 0
KSB1 230021Z 30009KT 19/M07 A2999 RMK A01 T01901073  RH  016%=      5-min Rain = 0
KSB1 230022Z 31009KT 19/M07 A2999 RMK A01 T01901074  RH  016%=      5-min Rain = 0
KSB1 230023Z 31010KT 19/M08 A2999 RMK A01 T01901075  RH  016%=      5-min Rain = 0
KSB1 230024Z 31009KT 19/M08 A2999 RMK A01 T01901075  RH  016%=      5-min Rain = 0
KSB1 230025Z 32009KT 19/M08 A2999 RMK A01 T01891075  RH  016%=      5-min Rain = 0
KSB1 230026Z 31012KT 19/M07 A2999 RMK A01 T01901073  RH  016%=      5-min Rain = 0
KSB1 230027Z 30010KT 19/M07 A2999 RMK A01 T01901074  RH  016%=      5-min Rain = 0
KSB1 230028Z 31008KT 19/M08 A2999 RMK A01 T01901075  RH  016%=      5-min Rain = 0
KSB1 230029Z 31009KT 19/M07 A2999 RMK A01 T01901074  RH  016%=      5-min Rain = 0
KSB1 230030Z 31009KT 19/M07 A2999 RMK A01 T01901074  RH  016%=      5-min Rain = 0
KSB1 230031Z 31009KT 19/M07 A2999 RMK A01 T01891074  RH  016%=      5-min Rain = 0
KSB1 230032Z 31012KT 19/M07 A2999 RMK A01 T01891074  RH  016%=      5-min Rain = 0
KSB1 230033Z 30011KT 19/M07 A2999 RMK A01 T01891074  RH  016%=      5-min Rain = 0
KSB1 230034Z 31010KT 19/M08 A2999 RMK A01 T01891075  RH  016%=      5-min Rain = 0
KSB1 230035Z 31009KT 19/M07 A2999 RMK A01 T01891074  RH  016%=      5-min Rain = 0
KSB1 230036Z 31008KT 19/M07 A2999 RMK A01 T01891073  RH  016%=      5-min Rain = 0
KSB1 230037Z 31008KT 19/M07 A2999 RMK A01 T01891073  RH  016%=      5-min Rain = 0
KSB1 230038Z 31010KT 19/M07 A2999 RMK A01 T01891073  RH  016%=      5-min Rain = 0
KSB1 230039Z 30010KT 19/M08 A2999 RMK A01 T01891075  RH  016%=      5-min Rain = 0
KSB1 230040Z 31010KT 19/M07 A2999 RMK A01 T01891074  RH  016%=      5-min Rain = 0
KSB1 230041Z 31011KT 19/M08 A2999 RMK A01 T01891075  RH  016%=      5-min Rain = 0
KSB1 230042Z 31009KT 19/M07 A2999 RMK A01 T01901074  RH  016%=      5-min Rain = 0
KSB1 230043Z 31011KT 19/M07 A2999 RMK A01 T01901074  RH  016%=      5-min Rain = 0
KSB1 230044Z 32013KT 19/M07 A2999 RMK A01 T01901074  RH  016%=      5-min Rain = 0
KSB1 230045Z 32011KT 19/M07 A2999 RMK A01 T01891074  RH  016%=      5-min Rain = 0
KSB1 230046Z 31009KT 19/M07 A2999 RMK A01 T01891073  RH  016%=      5-min Rain = 0
KSB1 230047Z 32009KT 19/M07 A2999 RMK A01 T01891072  RH  016%=      5-min Rain = 0
KSB1 230048Z 32011KT 19/M07 A2999 RMK A01 T01891072  RH  016%=      5-min Rain = 0
KSB1 230049Z 32009KT 19/M07 A2999 RMK A01 T01891072  RH  016%=      5-min Rain = 0
KSB1 230050Z 31011KT 19/M07 A2999 RMK A01 T01891072  RH  016%=      5-min Rain = 0
KSB1 230051Z 31009KT 19/M07 A2999 RMK A01 T01891072  RH  016%=      5-min Rain = 0
KSB1 230052Z 31010KT 19/M07 A2999 RMK A01 T01891071  RH  016%=      5-min Rain = 0
KSB1 230053Z 31011KT 19/M07 A2999 RMK A01 T01891073  RH  016%=      5-min Rain = 0
KSB1 230054Z 32011KT 19/M07 A2999 RMK A01 T01891072  RH  016%=      5-min Rain = 0
KSB1 230055Z 31010KT 19/M07 A2999 RMK A01 T01881072  RH  016%=      5-min Rain = 0
KSB1 230056Z 32011KT 19/M07 A2999 RMK A01 T01881072  RH  016%=      5-min Rain = 0
KSB1 230057Z 32011KT 19/M07 A2999 RMK A01 T01871071  RH  017%=      5-min Rain = 0
KSB1 230058Z 31011KT 19/M07 A2999 RMK A01 T01861072  RH  017%=      5-min Rain = 0
KSB1 230059Z 31011KT 19/M07 A2999 RMK A01 T01861072  RH  017%=      5-min Rain = 0
KSB1 230100Z 31014KT 19/M07 A2999 RMK A01 T01851073  RH  017%=      5-min Rain = 0
KSB1 230101Z 31013KT 19/M07 A2999 RMK A01 T01851074  RH  016%=      5-min Rain = 0
KSB1 230102Z 31012KT 19/M07 A2999 RMK A01 T01851074  RH  017%=      5-min Rain = 0
KSB1 230103Z 31010KT 19/M07 A2999 RMK A01 T01851073  RH  017%=      5-min Rain = 0
KSB1 230104Z 32010KT 18/M07 A30 RMK A01 T01841072  RH  017%=      5-min Rain = 0
KSB1 230105Z 32012KT 18/M07 A2999 RMK A01 T01841072  RH  017%=      5-min Rain = 0
KSB1 230106Z 32008KT 18/M07 A30 RMK A01 T01841072  RH  017%=      5-min Rain = 0
KSB1 230107Z 32009KT 18/M07 A30 RMK A01 T01831071  RH  017%=      5-min Rain = 0
KSB1 230108Z 32009KT 18/M07 A30 RMK A01 T01821071  RH  017%=      5-min Rain = 0
KSB1 230109Z 32008KT 18/M07 A30 RMK A01 T01821071  RH  017%=      5-min Rain = 0
KSB1 230110Z 32008KT 18/M07 A30 RMK A01 T01811071  RH  017%=      5-min Rain = 0
KSB1 230111Z 32009KT 18/M07 A30 RMK A01 T01811070  RH  017%=      5-min Rain = 0
KSB1 230112Z 32009KT 18/M07 A30 RMK A01 T01801071  RH  017%=      5-min Rain = 0
KSB1 230113Z 32008KT 18/M07 A30 RMK A01 T01801070  RH  018%=      5-min Rain = 0
KSB1 230114Z 32009KT 18/M07 A30 RMK A01 T01801070  RH  018%=      5-min Rain = 0
KSB1 230115Z 32009KT 18/M07 A30 RMK A01 T01801071  RH  017%=      5-min Rain = 0
KSB1 230116Z 32009KT 18/M07 A30 RMK A01 T01801071  RH  017%=      5-min Rain = 0
KSB1 230117Z 32007KT 18/M07 A30 RMK A01 T01801071  RH  017%=      5-min Rain = 0
KSB1 230118Z 32009KT 18/M07 A30 RMK A01 T01791070  RH  018%=      5-min Rain = 0
KSB1 230119Z 31010KT 18/M07 A30 RMK A01 T01791072  RH  017%=      5-min Rain = 0
KSB1 230120Z 32009KT 18/M07 A30 RMK A01 T01791071  RH  017%=      5-min Rain = 0
KSB1 230121Z 32010KT 18/M07 A30 RMK A01 T01781073  RH  017%=      5-min Rain = 0
KSB1 230122Z 32010KT 18/M07 A30 RMK A01 T01791074  RH  017%=      5-min Rain = 0
KSB1 230123Z 32011KT 18/M07 A30 RMK A01 T01781074  RH  017%=      5-min Rain = 0
KSB1 230124Z 31013KT 18/M08 A30 RMK A01 T01781075  RH  017%=      5-min Rain = 0
KSB1 230125Z 31012KT 18/M08 A30 RMK A01 T01791076  RH  017%=      5-min Rain = 0
KSB1 230126Z 31011KT 18/M08 A30 RMK A01 T01791077  RH  017%=      5-min Rain = 0
KSB1 230127Z 31011KT 18/M08 A30 RMK A01 T01791076  RH  017%=      5-min Rain = 0
KSB1 230128Z 31012KT 18/M08 A30 RMK A01 T01791077  RH  017%=      5-min Rain = 0
KSB1 230129Z 31011KT 18/M08 A30 RMK A01 T01791078  RH  017%=      5-min Rain = 0
KSB1 230130Z 31012KT 18/M08 A30 RMK A01 T01801078  RH  017%=      5-min Rain = 0
KSB1 230131Z 31011KT 18/M08 A30 RMK A01 T01801078  RH  017%=      5-min Rain = 0
KSB1 230132Z 32012KT 18/M08 A30 RMK A01 T01791080  RH  016%=      5-min Rain = 0
KSB1 230133Z 31012KT 18/M08 A30 RMK A01 T01791081  RH  016%=      5-min Rain = 0
KSB1 230134Z 31010KT 18/M08 A30 RMK A01 T01791081  RH  016%=      5-min Rain = 0
KSB1 230135Z 31011KT 18/M08 A30 RMK A01 T01781081  RH  016%=      5-min Rain = 0
KSB1 230136Z 31012KT 18/M08 A30 RMK A01 T01781082  RH  016%=      5-min Rain = 0
KSB1 230137Z 31011KT 18/M08 A30 RMK A01 T01781083  RH  016%=      5-min Rain = 0
KSB1 230138Z 32011KT 18/M08 A30 RMK A01 T01781083  RH  016%=      5-min Rain = 0
KSB1 230139Z 31012KT 18/M08 A30 RMK A01 T01781083  RH  016%=      5-min Rain = 0
KSB1 230140Z 31013KT 18/M08 A30 RMK A01 T01781084  RH  016%=      5-min Rain = 0
KSB1 230141Z 31012KT 18/M08 A30 RMK A01 T01781084  RH  016%=      5-min Rain = 0
KSB1 230142Z 31011KT 18/M08 A30 RMK A01 T01771084  RH  016%=      5-min Rain = 0
KSB1 230143Z 31012KT 18/M09 A30 RMK A01 T01761085  RH  016%=      5-min Rain = 0
KSB1 230144Z 31011KT 18/M09 A30 RMK A01 T01771085  RH  016%=      5-min Rain = 0
KSB1 230145Z 31011KT 18/M09 A30 RMK A01 T01771085  RH  016%=      5-min Rain = 0
KSB1 230146Z 31012KT 18/M09 A3001 RMK A01 T01761085  RH  016%=      5-min Rain = 0
KSB1 230147Z 32011KT 18/M09 A3001 RMK A01 T01751085  RH  016%=      5-min Rain = 0
KSB1 230148Z 32010KT 18/M08 A3001 RMK A01 T01751084  RH  016%=      5-min Rain = 0
KSB1 230149Z 31011KT 17/M09 A3001 RMK A01 T01741085  RH  016%=      5-min Rain = 0
KSB1 230150Z 31010KT 17/M08 A3001 RMK A01 T01731084  RH  016%=      5-min Rain = 0
KSB1 230151Z 32011KT 17/M08 A3001 RMK A01 T01731084  RH  017%=      5-min Rain = 0
KSB1 230152Z 31012KT 17/M09 A3001 RMK A01 T01721085  RH  016%=      5-min Rain = 0
KSB1 230153Z 32012KT 17/M09 A3001 RMK A01 T01731086  RH  016%=      5-min Rain = 0
KSB1 230154Z 32011KT 17/M09 A3001 RMK A01 T01731086  RH  016%=      5-min Rain = 0
KSB1 230155Z 32011KT 17/M09 A3001 RMK A01 T01731087  RH  016%=      5-min Rain = 0
KSB1 230156Z 32011KT 17/M09 A3001 RMK A01 T01741086  RH  016%=      5-min Rain = 0
KSB1 230157Z 32010KT 17/M09 A3001 RMK A01 T01731087  RH  016%=      5-min Rain = 0
KSB1 230158Z 31010KT 17/M09 A3001 RMK A01 T01731087  RH  016%=      5-min Rain = 0
KSB1 230159Z 32010KT 17/M09 A3001 RMK A01 T01731086  RH  016%=      5-min Rain = 0
KSB1 230200Z 32011KT 17/M09 A3001 RMK A01 T01721087  RH  016%=      5-min Rain = 0
KSB1 230201Z 31010KT 17/M09 A3001 RMK A01 T01721088  RH  016%=      5-min Rain = 0
KSB1 230202Z 31010KT 17/M09 A3001 RMK A01 T01721087  RH  016%=      5-min Rain = 0
KSB1 230203Z 31011KT 17/M09 A3001 RMK A01 T01721088  RH  016%=      5-min Rain = 0
KSB1 230204Z 32010KT 17/M09 A3001 RMK A01 T01711088  RH  016%=      5-min Rain = 0
KSB1 230205Z 32010KT 17/M09 A3001 RMK A01 T01711089  RH  016%=      5-min Rain = 0
KSB1 230206Z 32010KT 17/M09 A3001 RMK A01 T01721090  RH  016%=      5-min Rain = 0
KSB1 230207Z 31010KT 17/M09 A3002 RMK A01 T01721089  RH  016%=      5-min Rain = 0
KSB1 230208Z 32010KT 17/M09 A3002 RMK A01 T01721089  RH  016%=      5-min Rain = 0
KSB1 230209Z 32011KT 17/M09 A3002 RMK A01 T01711089  RH  016%=      5-min Rain = 0
KSB1 230210Z 31010KT 17/M09 A3002 RMK A01 T01711089  RH  016%=      5-min Rain = 0
KSB1 230211Z 31011KT 17/M09 A3002 RMK A01 T01711088  RH  016%=      5-min Rain = 0
KSB1 230212Z 31009KT 17/M09 A3002 RMK A01 T01711089  RH  016%=      5-min Rain = 0
KSB1 230213Z 31009KT 17/M09 A3002 RMK A01 T01701087  RH  016%=      5-min Rain = 0
KSB1 230214Z 31009KT 17/M09 A3002 RMK A01 T01681087  RH  017%=      5-min Rain = 0
KSB1 230215Z 30009KT 17/M09 A3002 RMK A01 T01671087  RH  017%=      5-min Rain = 0
KSB1 230216Z 31011KT 17/M09 A3002 RMK A01 T01671088  RH  017%=      5-min Rain = 0
KSB1 230217Z 30011KT 17/M09 A3002 RMK A01 T01671088  RH  017%=      5-min Rain = 0
KSB1 230218Z 30010KT 17/M09 A3002 RMK A01 T01681088  RH  016%=      5-min Rain = 0
KSB1 230219Z 30010KT 17/M09 A3003 RMK A01 T01681088  RH  016%=      5-min Rain = 0
KSB1 230220Z 30011KT 17/M09 A3003 RMK A01 T01691089  RH  016%=      5-min Rain = 0
KSB1 230221Z 30011KT 17/M09 A3003 RMK A01 T01691089  RH  016%=      5-min Rain = 0
KSB1 230222Z 30010KT 17/M09 A3003 RMK A01 T01701089  RH  016%=      5-min Rain = 0
KSB1 230223Z 30011KT 17/M09 A3003 RMK A01 T01701089  RH  016%=      5-min Rain = 0
KSB1 230224Z 30009KT 17/M09 A3003 RMK A01 T01701088  RH  016%=      5-min Rain = 0
KSB1 230225Z 30010KT 17/M09 A3003 RMK A01 T01701088  RH  016%=      5-min Rain = 0
KSB1 230226Z 30010KT 17/M09 A3003 RMK A01 T01701087  RH  016%=      5-min Rain = 0
KSB1 230227Z 30011KT 17/M09 A3003 RMK A01 T01701087  RH  016%=      5-min Rain = 0
KSB1 230228Z 30012KT 17/M09 A3003 RMK A01 T01691087  RH  016%=      5-min Rain = 0
KSB1 230229Z 30011KT 17/M09 A3003 RMK A01 T01691087  RH  016%=      5-min Rain = 0
KSB1 230230Z 31011KT 17/M09 A3003 RMK A01 T01691087  RH  017%=      5-min Rain = 0
KSB1 230231Z 30010KT 17/M09 A3003 RMK A01 T01701086  RH  017%=      5-min Rain = 0
KSB1 230232Z 31011KT 17/M09 A3003 RMK A01 T01691085  RH  017%=      5-min Rain = 0
KSB1 230233Z 31012KT 17/M09 A3003 RMK A01 T01691085  RH  017%=      5-min Rain = 0
KSB1 230234Z 31010KT 17/M08 A3003 RMK A01 T01691084  RH  017%=      5-min Rain = 0
KSB1 230235Z 31012KT 17/M08 A3003 RMK A01 T01681083  RH  017%=      5-min Rain = 0
KSB1 230236Z 31010KT 17/M08 A3003 RMK A01 T01681083  RH  017%=      5-min Rain = 0
KSB1 230237Z 31013KT 17/M08 A3003 RMK A01 T01681082  RH  017%=      5-min Rain = 0
KSB1 230238Z 31012KT 17/M08 A3003 RMK A01 T01681083  RH  017%=      5-min Rain = 0
KSB1 230239Z 31013KT 17/M08 A3003 RMK A01 T01681083  RH  017%=      5-min Rain = 0
KSB1 230240Z 31013KT 17/M08 A3003 RMK A01 T01681082  RH  017%=      5-min Rain = 0
KSB1 230241Z 31013KT 17/M08 A3003 RMK A01 T01681081  RH  017%=      5-min Rain = 0
KSB1 230242Z 31012KT 17/M08 A3004 RMK A01 T01681082  RH  017%=      5-min Rain = 0
KSB1 230243Z 32012KT 17/M08 A3004 RMK A01 T01681082  RH  017%=      5-min Rain = 0
KSB1 230244Z 31011KT 17/M08 A3004 RMK A01 T01681081  RH  017%=      5-min Rain = 0
KSB1 230245Z 32012KT 17/M08 A3004 RMK A01 T01671081  RH  018%=      5-min Rain = 0
KSB1 230246Z 31010KT 17/M08 A3004 RMK A01 T01681081  RH  017%=      5-min Rain = 0
KSB1 230247Z 32012KT 17/M08 A3004 RMK A01 T01671080  RH  018%=      5-min Rain = 0
KSB1 230248Z 32012KT 17/M08 A3004 RMK A01 T01671080  RH  018%=      5-min Rain = 0
KSB1 230249Z 32013KT 17/M08 A3004 RMK A01 T01681080  RH  018%=      5-min Rain = 0
KSB1 230250Z 32012KT 17/M08 A3004 RMK A01 T01681080  RH  018%=      5-min Rain = 0
KSB1 230251Z 31011KT 17/M08 A3004 RMK A01 T01681080  RH  018%=      5-min Rain = 0
KSB1 230252Z 32011KT 17/M08 A3004 RMK A01 T01681080  RH  018%=      5-min Rain = 0
KSB1 230253Z 32010KT 17/M08 A3004 RMK A01 T01671079  RH  018%=      5-min Rain = 0
KSB1 230254Z 31011KT 17/M08 A3004 RMK A01 T01671079  RH  018%=      5-min Rain = 0
KSB1 230255Z 31011KT 17/M08 A3004 RMK A01 T01651079  RH  018%=      5-min Rain = 0
KSB1 230256Z 31011KT 17/M08 A3004 RMK A01 T01651078  RH  018%=      5-min Rain = 0
KSB1 230257Z 31010KT 16/M08 A3004 RMK A01 T01641078  RH  018%=      5-min Rain = 0
KSB1 230258Z 31012KT 16/M08 A3004 RMK A01 T01641077  RH  018%=      5-min Rain = 0
KSB1 230259Z 31012KT 16/M08 A3004 RMK A01 T01631078  RH  018%=      5-min Rain = 0
KSB1 230300Z 31013KT 16/M08 A3004 RMK A01 T01641077  RH  018%=      5-min Rain = 0
KSB1 230301Z 31013KT 16/M08 A3004 RMK A01 T01641078  RH  018%=      5-min Rain = 0
KSB1 230302Z 31012KT 17/M08 A3004 RMK A01 T01651077  RH  018%=      5-min Rain = 0
KSB1 230303Z 31013KT 16/M08 A3004 RMK A01 T01641076  RH  019%=      5-min Rain = 0
KSB1 230304Z 31012KT 16/M08 A3004 RMK A01 T01641077  RH  018%=      5-min Rain = 0
KSB1 230305Z 31014KT 16/M08 A3004 RMK A01 T01641076  RH  019%=      5-min Rain = 0
KSB1 230306Z 31015KT 16/M08 A3004 RMK A01 T01641076  RH  018%=      5-min Rain = 0
KSB1 230307Z 31015KT 17/M08 A3004 RMK A01 T01651076  RH  018%=      5-min Rain = 0
KSB1 230308Z 31015KT 17/M08 A3004 RMK A01 T01651076  RH  018%=      5-min Rain = 0
KSB1 230309Z 31013KT 17/M08 A3004 RMK A01 T01661076  RH  018%=      5-min Rain = 0
KSB1 230310Z 31013KT 17/M08 A3004 RMK A01 T01661075  RH  019%=      5-min Rain = 0
KSB1 230311Z 31014KT 17/M08 A3005 RMK A01 T01651075  RH  019%=      5-min Rain = 0
KSB1 230312Z 31013KT 17/M08 A3005 RMK A01 T01661075  RH  018%=      5-min Rain = 0
KSB1 230313Z 31013KT 17/M08 A3005 RMK A01 T01661075  RH  018%=      5-min Rain = 0
KSB1 230314Z 31012KT 17/M07 A3005 RMK A01 T01661074  RH  019%=      5-min Rain = 0
KSB1 230315Z 31013KT 17/M08 A3005 RMK A01 T01661075  RH  019%=      5-min Rain = 0
KSB1 230316Z 31013KT 17/M08 A3005 RMK A01 T01651076  RH  018%=      5-min Rain = 0
KSB1 230317Z 31012KT 17/M08 A3005 RMK A01 T01651075  RH  019%=      5-min Rain = 0
KSB1 230318Z 31012KT 17/M08 A3005 RMK A01 T01651075  RH  019%=      5-min Rain = 0
KSB1 230319Z 31012KT 16/M07 A3005 RMK A01 T01641074  RH  019%=      5-min Rain = 0
KSB1 230320Z 31012KT 16/M08 A3005 RMK A01 T01641075  RH  019%=      5-min Rain = 0
KSB1 230321Z 31011KT 16/M08 A3005 RMK A01 T01641075  RH  019%=      5-min Rain = 0
KSB1 230322Z 31012KT 16/M08 A3005 RMK A01 T01641075  RH  019%=      5-min Rain = 0
KSB1 230323Z 31012KT 16/M08 A3005 RMK A01 T01631075  RH  019%=      5-min Rain = 0
KSB1 230324Z 31012KT 16/M08 A3005 RMK A01 T01631075  RH  019%=      5-min Rain = 0
KSB1 230325Z 31012KT 16/M08 A3005 RMK A01 T01631075  RH  019%=      5-min Rain = 0
KSB1 230326Z 31012KT 16/M08 A3005 RMK A01 T01621075  RH  019%=      5-min Rain = 0
KSB1 230327Z 31013KT 16/M08 A3005 RMK A01 T01611075  RH  019%=      5-min Rain = 0
KSB1 230328Z 31013KT 16/M08 A3005 RMK A01 T01611075  RH  019%=      5-min Rain = 0
KSB1 230329Z 31014KT 16/M08 A3005 RMK A01 T01611075  RH  019%=      5-min Rain = 0
KSB1 230330Z 31014KT 16/M08 A3005 RMK A01 T01621075  RH  019%=      5-min Rain = 0
KSB1 230331Z 31013KT 16/M08 A3005 RMK A01 T01631075  RH  019%=      5-min Rain = 0
KSB1 230332Z 31013KT 16/M08 A3005 RMK A01 T01631075  RH  019%=      5-min Rain = 0
KSB1 230333Z 31013KT 16/M08 A3005 RMK A01 T01641075  RH  019%=      5-min Rain = 0
KSB1 230334Z 31012KT 17/M08 A3005 RMK A01 T01651075  RH  019%=      5-min Rain = 0
KSB1 230335Z 31012KT 17/M07 A3006 RMK A01 T01651074  RH  019%=      5-min Rain = 0
KSB1 230336Z 31012KT 16/M07 A3006 RMK A01 T01641074  RH  019%=      5-min Rain = 0
KSB1 230337Z 31012KT 16/M07 A3006 RMK A01 T01641074  RH  019%=      5-min Rain = 0
KSB1 230338Z 31011KT 16/M07 A3006 RMK A01 T01631074  RH  019%=      5-min Rain = 0
KSB1 230339Z 31012KT 16/M07 A3006 RMK A01 T01631074  RH  019%=      5-min Rain = 0
KSB1 230340Z 31012KT 16/M07 A3006 RMK A01 T01631074  RH  019%=      5-min Rain = 0
KSB1 230341Z 31013KT 16/M07 A3006 RMK A01 T01621074  RH  019%=      5-min Rain = 0
KSB1 230342Z 31012KT 16/M08 A3006 RMK A01 T01631075  RH  019%=      5-min Rain = 0
KSB1 230343Z 31013KT 16/M08 A3006 RMK A01 T01631075  RH  019%=      5-min Rain = 0
KSB1 230344Z 31012KT 16/M08 A3006 RMK A01 T01621075  RH  019%=      5-min Rain = 0
KSB1 230345Z 31011KT 16/M08 A3006 RMK A01 T01621075  RH  019%=      5-min Rain = 0
KSB1 230346Z 31011KT 16/M07 A3006 RMK A01 T01611074  RH  019%=      5-min Rain = 0
KSB1 230347Z 31012KT 16/M07 A3006 RMK A01 T01611074  RH  019%=      5-min Rain = 0
KSB1 230348Z 31012KT 16/M07 A3006 RMK A01 T01601074  RH  019%=      5-min Rain = 0
KSB1 230349Z 31012KT 16/M08 A3006 RMK A01 T01601075  RH  019%=      5-min Rain = 0
KSB1 230350Z 31012KT 16/M07 A3006 RMK A01 T01601074  RH  019%=      5-min Rain = 0
KSB1 230351Z 31013KT 16/M07 A3006 RMK A01 T01591074  RH  019%=      5-min Rain = 0
KSB1 230352Z 31014KT 16/M07 A3006 RMK A01 T01591074  RH  019%=      5-min Rain = 0
KSB1 230353Z 31012KT 16/M08 A3006 RMK A01 T01611076  RH  019%=      5-min Rain = 0
KSB1 230354Z 31015KT 16/M08 A3006 RMK A01 T01621076  RH  019%=      5-min Rain = 0
KSB1 230355Z 31013KT 16/M08 A3006 RMK A01 T01631076  RH  019%=      5-min Rain = 0
KSB1 230356Z 31013KT 16/M08 A3007 RMK A01 T01641076  RH  019%=      5-min Rain = 0
KSB1 230357Z 31013KT 16/M08 A3007 RMK A01 T01641076  RH  019%=      5-min Rain = 0
KSB1 230358Z 31013KT 16/M08 A3007 RMK A01 T01631075  RH  019%=      5-min Rain = 0
KSB1 230359Z 31014KT 16/M08 A3007 RMK A01 T01631075  RH  019%=      5-min Rain = 0
KSB1 230400Z 31014KT 16/M08 A3007 RMK A01 T01631076  RH  019%=      5-min Rain = 0
KSB1 230401Z 31013KT 16/M08 A3007 RMK A01 T01631076  RH  019%=      5-min Rain = 0
KSB1 230402Z 31014KT 16/M08 A3007 RMK A01 T01631075  RH  019%=      5-min Rain = 0
KSB1 230403Z 31014KT 16/M08 A3007 RMK A01 T01621075  RH  019%=      5-min Rain = 0
KSB1 230404Z 31014KT 16/M08 A3007 RMK A01 T01631075  RH  019%=      5-min Rain = 0
KSB1 230405Z 30013KT 16/M08 A3007 RMK A01 T01621075  RH  019%=      5-min Rain = 0
KSB1 230406Z 30015KT 16/M08 A3007 RMK A01 T01611075  RH  019%=      5-min Rain = 0
KSB1 230407Z 31014KT 16/M08 A3007 RMK A01 T01611075  RH  019%=      5-min Rain = 0
KSB1 230408Z 30015KT 16/M08 A3007 RMK A01 T01611076  RH  019%=      5-min Rain = 0
KSB1 230409Z 31014KT 16/M08 A3007 RMK A01 T01611076  RH  019%=      5-min Rain = 0
KSB1 230410Z 31014KT 16/M08 A3007 RMK A01 T01611076  RH  019%=      5-min Rain = 0
KSB1 230411Z 31016KT 16/M08 A3007 RMK A01 T01601076  RH  019%=      5-min Rain = 0
KSB1 230412Z 31016KT 16/M08 A3007 RMK A01 T01601076  RH  019%=      5-min Rain = 0
KSB1 230413Z 30015KT 16/M08 A3007 RMK A01 T01591076  RH  019%=      5-min Rain = 0
KSB1 230414Z 30015KT 16/M08 A3007 RMK A01 T01601076  RH  019%=      5-min Rain = 0
KSB1 230415Z 30014KT 16/M08 A3007 RMK A01 T01591075  RH  019%=      5-min Rain = 0
KSB1 230416Z 30014KT 16/M08 A3007 RMK A01 T01591075  RH  019%=      5-min Rain = 0
KSB1 230417Z 30015KT 16/M08 A3007 RMK A01 T01591076  RH  019%=      5-min Rain = 0
KSB1 230418Z 30014KT 16/M08 A3007 RMK A01 T01591075  RH  019%=      5-min Rain = 0
KSB1 230419Z 30013KT 16/M08 A3007 RMK A01 T01591075  RH  019%=      5-min Rain = 0
KSB1 230420Z 30014KT 16/M08 A3007 RMK A01 T01581075  RH  019%=      5-min Rain = 0
KSB1 230421Z 30014KT 16/M08 A3007 RMK A01 T01581075  RH  019%=      5-min Rain = 0
KSB1 230422Z 30013KT 16/M08 A3007 RMK A01 T01581075  RH  019%=      5-min Rain = 0
KSB1 230423Z 30012KT 16/M08 A3007 RMK A01 T01581075  RH  020%=      5-min Rain = 0
KSB1 230424Z 30011KT 16/M07 A3007 RMK A01 T01571074  RH  020%=      5-min Rain = 0
KSB1 230425Z 30014KT 16/M07 A3007 RMK A01 T01571074  RH  020%=      5-min Rain = 0
KSB1 230426Z 30012KT 16/M08 A3007 RMK A01 T01571075  RH  019%=      5-min Rain = 0
KSB1 230427Z 30012KT 16/M08 A3007 RMK A01 T01581075  RH  019%=      5-min Rain = 0
KSB1 230428Z 30011KT 16/M07 A3007 RMK A01 T01591074  RH  019%=      5-min Rain = 0
KSB1 230429Z 30012KT 16/M07 A3007 RMK A01 T01581074  RH  020%=      5-min Rain = 0
KSB1 230430Z 30011KT 16/M08 A3007 RMK A01 T01581075  RH  020%=      5-min Rain = 0
KSB1 230431Z 30011KT 16/M07 A3007 RMK A01 T01581074  RH  020%=      5-min Rain = 0
KSB1 230432Z 30012KT 16/M07 A3007 RMK A01 T01581074  RH  020%=      5-min Rain = 0
KSB1 230433Z 30012KT 16/M08 A3007 RMK A01 T01581075  RH  020%=      5-min Rain = 0
KSB1 230434Z 30011KT 16/M08 A3008 RMK A01 T01581075  RH  019%=      5-min Rain = 0
KSB1 230435Z 30011KT 16/M08 A3008 RMK A01 T01581075  RH  019%=      5-min Rain = 0
KSB1 230436Z 30010KT 16/M08 A3008 RMK A01 T01591075  RH  019%=      5-min Rain = 0
KSB1 230437Z 30010KT 16/M08 A3008 RMK A01 T01581075  RH  019%=      5-min Rain = 0
KSB1 230438Z 30010KT 16/M08 A3008 RMK A01 T01581075  RH  019%=      5-min Rain = 0
KSB1 230439Z 30011KT 16/M08 A3008 RMK A01 T01581075  RH  020%=      5-min Rain = 0
KSB1 230440Z 30011KT 16/M08 A3008 RMK A01 T01571075  RH  019%=      5-min Rain = 0
KSB1 230441Z 31010KT 16/M08 A3008 RMK A01 T01571075  RH  019%=      5-min Rain = 0
KSB1 230442Z 30011KT 16/M07 A3008 RMK A01 T01571074  RH  020%=      5-min Rain = 0
KSB1 230443Z 30010KT 16/M08 A3008 RMK A01 T01561075  RH  020%=      5-min Rain = 0
KSB1 230444Z 30012KT 16/M08 A3008 RMK A01 T01561076  RH  020%=      5-min Rain = 0
KSB1 230445Z 31010KT 16/M08 A3008 RMK A01 T01571076  RH  019%=      5-min Rain = 0
KSB1 230446Z 31011KT 16/M08 A3008 RMK A01 T01571075  RH  020%=      5-min Rain = 0
KSB1 230447Z 30011KT 16/M08 A3008 RMK A01 T01561075  RH  020%=      5-min Rain = 0
KSB1 230448Z 30010KT 16/M08 A3008 RMK A01 T01561075  RH  020%=      5-min Rain = 0
KSB1 230449Z 30010KT 16/M08 A3008 RMK A01 T01561075  RH  020%=      5-min Rain = 0
KSB1 230450Z 31010KT 16/M08 A3008 RMK A01 T01551075  RH  020%=      5-min Rain = 0
KSB1 230451Z 30010KT 16/M08 A3008 RMK A01 T01551075  RH  020%=      5-min Rain = 0
KSB1 230452Z 31011KT 16/M08 A3008 RMK A01 T01551075  RH  020%=      5-min Rain = 0
KSB1 230453Z 31011KT 16/M08 A3008 RMK A01 T01551075  RH  020%=      5-min Rain = 0
KSB1 230454Z 30012KT 16/M08 A3008 RMK A01 T01551075  RH  020%=      5-min Rain = 0
KSB1 230455Z 30011KT 16/M08 A3008 RMK A01 T01551077  RH  019%=      5-min Rain = 0
KSB1 230456Z 30010KT 16/M08 A3008 RMK A01 T01561076  RH  019%=      5-min Rain = 0
KSB1 230457Z 30011KT 16/M08 A3008 RMK A01 T01561075  RH  020%=      5-min Rain = 0
KSB1 230458Z 31012KT 16/M08 A3008 RMK A01 T01551076  RH  020%=      5-min Rain = 0
KSB1 230459Z 31011KT 16/M08 A3008 RMK A01 T01551077  RH  020%=      5-min Rain = 0

Page generated in 0.182 seconds.